<?xml version="1.0" encoding="UTF-8" standalone="no" ?>
<gpx xmlns="http://www.topografix.com/GPX/1/1" xmlns:xsi="http://www.w3.org/2001/XMLSchema-instance" xsi:schemaLocation="http://www.topografix.com/GPX/1/1 http://www.topografix.com/GPX/1/1/gpx.xsd" version="1.1" creator="VisuGPX - https://www.visugpx.com">
  <metadata>
    <name>Charteuse / Mauvernay et Petit Som depuis le Monastere</name>
  </metadata>
  <trk>
    <name><![CDATA[Ski rando Chartreuse]]></name>
    <trkseg>
      <trkpt lat="45.35528" lon="5.78794">
        <ele>954</ele>
        <time>2022-01-12T12:15:03.940Z</time>
      </trkpt>
      <trkpt lat="45.35528" lon="5.78794">
        <ele>954</ele>
        <time>2022-01-12T12:16:33.545Z</time>
      </trkpt>
      <trkpt lat="45.35522" lon="5.78785">
        <ele>942</ele>
        <time>2022-01-12T12:16:35.572Z</time>
      </trkpt>
      <trkpt lat="45.35511" lon="5.78779">
        <ele>924</ele>
        <time>2022-01-12T12:16:38.549Z</time>
      </trkpt>
      <trkpt lat="45.35503" lon="5.78785">
        <ele>908</ele>
        <time>2022-01-12T12:16:43.549Z</time>
      </trkpt>
      <trkpt lat="45.35494" lon="5.7879">
        <ele>895</ele>
        <time>2022-01-12T12:16:52.559Z</time>
      </trkpt>
      <trkpt lat="45.35493" lon="5.78777">
        <ele>884</ele>
        <time>2022-01-12T12:17:08.544Z</time>
      </trkpt>
      <trkpt lat="45.35493" lon="5.78777">
        <ele>884</ele>
        <time>2022-01-12T12:17:35.504Z</time>
      </trkpt>
      <trkpt lat="45.35498" lon="5.78775">
        <ele>865</ele>
        <time>2022-01-12T12:17:36.523Z</time>
      </trkpt>
      <trkpt lat="45.35505" lon="5.78766">
        <ele>863</ele>
        <time>2022-01-12T12:17:41.512Z</time>
      </trkpt>
      <trkpt lat="45.35514" lon="5.78767">
        <ele>861</ele>
        <time>2022-01-12T12:17:51.557Z</time>
      </trkpt>
      <trkpt lat="45.35523" lon="5.7877">
        <ele>861</ele>
        <time>2022-01-12T12:18:04.552Z</time>
      </trkpt>
      <trkpt lat="45.35532" lon="5.78777">
        <ele>862</ele>
        <time>2022-01-12T12:18:12.550Z</time>
      </trkpt>
      <trkpt lat="45.35541" lon="5.78778">
        <ele>863</ele>
        <time>2022-01-12T12:18:19.579Z</time>
      </trkpt>
      <trkpt lat="45.3555" lon="5.7878">
        <ele>864</ele>
        <time>2022-01-12T12:18:26.574Z</time>
      </trkpt>
      <trkpt lat="45.35561" lon="5.78781">
        <ele>866</ele>
        <time>2022-01-12T12:18:35.539Z</time>
      </trkpt>
      <trkpt lat="45.3557" lon="5.78781">
        <ele>866</ele>
        <time>2022-01-12T12:18:42.614Z</time>
      </trkpt>
      <trkpt lat="45.3558" lon="5.78783">
        <ele>867</ele>
        <time>2022-01-12T12:18:50.546Z</time>
      </trkpt>
      <trkpt lat="45.35589" lon="5.78782">
        <ele>868</ele>
        <time>2022-01-12T12:18:58.538Z</time>
      </trkpt>
      <trkpt lat="45.35597" lon="5.78788">
        <ele>868</ele>
        <time>2022-01-12T12:19:07.552Z</time>
      </trkpt>
      <trkpt lat="45.35606" lon="5.78792">
        <ele>869</ele>
        <time>2022-01-12T12:19:16.527Z</time>
      </trkpt>
      <trkpt lat="45.35615" lon="5.78796">
        <ele>869</ele>
        <time>2022-01-12T12:19:23.558Z</time>
      </trkpt>
      <trkpt lat="45.35624" lon="5.78799">
        <ele>869</ele>
        <time>2022-01-12T12:19:30.531Z</time>
      </trkpt>
      <trkpt lat="45.35633" lon="5.78796">
        <ele>869</ele>
        <time>2022-01-12T12:19:35.542Z</time>
      </trkpt>
      <trkpt lat="45.35643" lon="5.78796">
        <ele>868</ele>
        <time>2022-01-12T12:19:44.548Z</time>
      </trkpt>
      <trkpt lat="45.35652" lon="5.78796">
        <ele>868</ele>
        <time>2022-01-12T12:19:52.561Z</time>
      </trkpt>
      <trkpt lat="45.35663" lon="5.78799">
        <ele>868</ele>
        <time>2022-01-12T12:19:58.541Z</time>
      </trkpt>
      <trkpt lat="45.35672" lon="5.78803">
        <ele>868</ele>
        <time>2022-01-12T12:20:05.531Z</time>
      </trkpt>
      <trkpt lat="45.35681" lon="5.7881">
        <ele>868</ele>
        <time>2022-01-12T12:20:13.534Z</time>
      </trkpt>
      <trkpt lat="45.3569" lon="5.78817">
        <ele>868</ele>
        <time>2022-01-12T12:20:20.551Z</time>
      </trkpt>
      <trkpt lat="45.35698" lon="5.78824">
        <ele>868</ele>
        <time>2022-01-12T12:20:26.544Z</time>
      </trkpt>
      <trkpt lat="45.35705" lon="5.78834">
        <ele>869</ele>
        <time>2022-01-12T12:20:32.543Z</time>
      </trkpt>
      <trkpt lat="45.35714" lon="5.78838">
        <ele>870</ele>
        <time>2022-01-12T12:20:39.553Z</time>
      </trkpt>
      <trkpt lat="45.35722" lon="5.78847">
        <ele>871</ele>
        <time>2022-01-12T12:20:49.518Z</time>
      </trkpt>
      <trkpt lat="45.3573" lon="5.78854">
        <ele>872</ele>
        <time>2022-01-12T12:20:58.513Z</time>
      </trkpt>
      <trkpt lat="45.3574" lon="5.78856">
        <ele>873</ele>
        <time>2022-01-12T12:21:07.513Z</time>
      </trkpt>
      <trkpt lat="45.35748" lon="5.78865">
        <ele>874</ele>
        <time>2022-01-12T12:21:15.537Z</time>
      </trkpt>
      <trkpt lat="45.35757" lon="5.78871">
        <ele>875</ele>
        <time>2022-01-12T12:21:23.519Z</time>
      </trkpt>
      <trkpt lat="45.35767" lon="5.78873">
        <ele>876</ele>
        <time>2022-01-12T12:21:29.573Z</time>
      </trkpt>
      <trkpt lat="45.35776" lon="5.78875">
        <ele>877</ele>
        <time>2022-01-12T12:21:36.513Z</time>
      </trkpt>
      <trkpt lat="45.35785" lon="5.78876">
        <ele>879</ele>
        <time>2022-01-12T12:21:45.528Z</time>
      </trkpt>
      <trkpt lat="45.35786" lon="5.78876">
        <ele>879</ele>
        <time>2022-01-12T12:21:47.513Z</time>
      </trkpt>
      <trkpt lat="45.35786" lon="5.78876">
        <ele>879</ele>
        <time>2022-01-12T12:21:50.513Z</time>
      </trkpt>
      <trkpt lat="45.35791" lon="5.78876">
        <ele>880</ele>
        <time>2022-01-12T12:21:51.522Z</time>
      </trkpt>
      <trkpt lat="45.35799" lon="5.78881">
        <ele>882</ele>
        <time>2022-01-12T12:22:01.529Z</time>
      </trkpt>
      <trkpt lat="45.35808" lon="5.78886">
        <ele>884</ele>
        <time>2022-01-12T12:22:10.514Z</time>
      </trkpt>
      <trkpt lat="45.35816" lon="5.78892">
        <ele>885</ele>
        <time>2022-01-12T12:22:18.514Z</time>
      </trkpt>
      <trkpt lat="45.35825" lon="5.78896">
        <ele>887</ele>
        <time>2022-01-12T12:22:28.527Z</time>
      </trkpt>
      <trkpt lat="45.35833" lon="5.78901">
        <ele>888</ele>
        <time>2022-01-12T12:22:35.522Z</time>
      </trkpt>
      <trkpt lat="45.35842" lon="5.78907">
        <ele>889</ele>
        <time>2022-01-12T12:22:41.526Z</time>
      </trkpt>
      <trkpt lat="45.35851" lon="5.78911">
        <ele>890</ele>
        <time>2022-01-12T12:22:49.524Z</time>
      </trkpt>
      <trkpt lat="45.3586" lon="5.78915">
        <ele>891</ele>
        <time>2022-01-12T12:22:57.511Z</time>
      </trkpt>
      <trkpt lat="45.3587" lon="5.78915">
        <ele>892</ele>
        <time>2022-01-12T12:23:05.525Z</time>
      </trkpt>
      <trkpt lat="45.3588" lon="5.78918">
        <ele>893</ele>
        <time>2022-01-12T12:23:12.535Z</time>
      </trkpt>
      <trkpt lat="45.35889" lon="5.78922">
        <ele>894</ele>
        <time>2022-01-12T12:23:22.534Z</time>
      </trkpt>
      <trkpt lat="45.35899" lon="5.78922">
        <ele>896</ele>
        <time>2022-01-12T12:23:32.525Z</time>
      </trkpt>
      <trkpt lat="45.35908" lon="5.78923">
        <ele>897</ele>
        <time>2022-01-12T12:23:42.532Z</time>
      </trkpt>
      <trkpt lat="45.35917" lon="5.7893">
        <ele>898</ele>
        <time>2022-01-12T12:23:50.525Z</time>
      </trkpt>
      <trkpt lat="45.35926" lon="5.78934">
        <ele>900</ele>
        <time>2022-01-12T12:23:58.538Z</time>
      </trkpt>
      <trkpt lat="45.35936" lon="5.78935">
        <ele>902</ele>
        <time>2022-01-12T12:24:07.528Z</time>
      </trkpt>
      <trkpt lat="45.35945" lon="5.78941">
        <ele>903</ele>
        <time>2022-01-12T12:24:16.525Z</time>
      </trkpt>
      <trkpt lat="45.35953" lon="5.78948">
        <ele>905</ele>
        <time>2022-01-12T12:24:24.535Z</time>
      </trkpt>
      <trkpt lat="45.35961" lon="5.78956">
        <ele>907</ele>
        <time>2022-01-12T12:24:32.546Z</time>
      </trkpt>
      <trkpt lat="45.35969" lon="5.78963">
        <ele>908</ele>
        <time>2022-01-12T12:24:39.534Z</time>
      </trkpt>
      <trkpt lat="45.35978" lon="5.78969">
        <ele>909</ele>
        <time>2022-01-12T12:24:46.545Z</time>
      </trkpt>
      <trkpt lat="45.35985" lon="5.78979">
        <ele>910</ele>
        <time>2022-01-12T12:24:53.546Z</time>
      </trkpt>
      <trkpt lat="45.35994" lon="5.78982">
        <ele>911</ele>
        <time>2022-01-12T12:25:08.548Z</time>
      </trkpt>
      <trkpt lat="45.36003" lon="5.78985">
        <ele>912</ele>
        <time>2022-01-12T12:25:16.537Z</time>
      </trkpt>
      <trkpt lat="45.36011" lon="5.78992">
        <ele>914</ele>
        <time>2022-01-12T12:25:23.541Z</time>
      </trkpt>
      <trkpt lat="45.36019" lon="5.78999">
        <ele>916</ele>
        <time>2022-01-12T12:25:33.546Z</time>
      </trkpt>
      <trkpt lat="45.36028" lon="5.79004">
        <ele>918</ele>
        <time>2022-01-12T12:25:42.520Z</time>
      </trkpt>
      <trkpt lat="45.36037" lon="5.79006">
        <ele>920</ele>
        <time>2022-01-12T12:25:52.547Z</time>
      </trkpt>
      <trkpt lat="45.36045" lon="5.79012">
        <ele>922</ele>
        <time>2022-01-12T12:26:00.536Z</time>
      </trkpt>
      <trkpt lat="45.36054" lon="5.79019">
        <ele>924</ele>
        <time>2022-01-12T12:26:09.550Z</time>
      </trkpt>
      <trkpt lat="45.36063" lon="5.79025">
        <ele>925</ele>
        <time>2022-01-12T12:26:19.554Z</time>
      </trkpt>
      <trkpt lat="45.36071" lon="5.7903">
        <ele>927</ele>
        <time>2022-01-12T12:26:28.576Z</time>
      </trkpt>
      <trkpt lat="45.36079" lon="5.79037">
        <ele>927</ele>
        <time>2022-01-12T12:26:38.530Z</time>
      </trkpt>
      <trkpt lat="45.36088" lon="5.7904">
        <ele>928</ele>
        <time>2022-01-12T12:26:49.538Z</time>
      </trkpt>
      <trkpt lat="45.36098" lon="5.79042">
        <ele>928</ele>
        <time>2022-01-12T12:26:56.562Z</time>
      </trkpt>
      <trkpt lat="45.36106" lon="5.79047">
        <ele>928</ele>
        <time>2022-01-12T12:27:04.557Z</time>
      </trkpt>
      <trkpt lat="45.36114" lon="5.79056">
        <ele>928</ele>
        <time>2022-01-12T12:27:12.569Z</time>
      </trkpt>
      <trkpt lat="45.36123" lon="5.79058">
        <ele>928</ele>
        <time>2022-01-12T12:27:20.555Z</time>
      </trkpt>
      <trkpt lat="45.36133" lon="5.7906">
        <ele>928</ele>
        <time>2022-01-12T12:27:29.551Z</time>
      </trkpt>
      <trkpt lat="45.36141" lon="5.79067">
        <ele>928</ele>
        <time>2022-01-12T12:27:38.573Z</time>
      </trkpt>
      <trkpt lat="45.3615" lon="5.79069">
        <ele>928</ele>
        <time>2022-01-12T12:27:47.557Z</time>
      </trkpt>
      <trkpt lat="45.36159" lon="5.79075">
        <ele>928</ele>
        <time>2022-01-12T12:27:55.604Z</time>
      </trkpt>
      <trkpt lat="45.36168" lon="5.79081">
        <ele>929</ele>
        <time>2022-01-12T12:28:02.545Z</time>
      </trkpt>
      <trkpt lat="45.36177" lon="5.79084">
        <ele>931</ele>
        <time>2022-01-12T12:28:09.567Z</time>
      </trkpt>
      <trkpt lat="45.36187" lon="5.79084">
        <ele>933</ele>
        <time>2022-01-12T12:28:19.563Z</time>
      </trkpt>
      <trkpt lat="45.36196" lon="5.79088">
        <ele>934</ele>
        <time>2022-01-12T12:28:28.568Z</time>
      </trkpt>
      <trkpt lat="45.36206" lon="5.7909">
        <ele>936</ele>
        <time>2022-01-12T12:28:36.557Z</time>
      </trkpt>
      <trkpt lat="45.36215" lon="5.79089">
        <ele>937</ele>
        <time>2022-01-12T12:28:45.566Z</time>
      </trkpt>
      <trkpt lat="45.36221" lon="5.7909">
        <ele>939</ele>
        <time>2022-01-12T12:29:02.505Z</time>
      </trkpt>
      <trkpt lat="45.36221" lon="5.7909">
        <ele>939</ele>
        <time>2022-01-12T12:29:07.509Z</time>
      </trkpt>
      <trkpt lat="45.36218" lon="5.79088">
        <ele>940</ele>
        <time>2022-01-12T12:29:08.537Z</time>
      </trkpt>
      <trkpt lat="45.36216" lon="5.79086">
        <ele>942</ele>
        <time>2022-01-12T12:29:14.532Z</time>
      </trkpt>
      <trkpt lat="45.36216" lon="5.79086">
        <ele>942</ele>
        <time>2022-01-12T12:29:52.557Z</time>
      </trkpt>
      <trkpt lat="45.36219" lon="5.79091">
        <ele>954</ele>
        <time>2022-01-12T12:29:53.528Z</time>
      </trkpt>
      <trkpt lat="45.36227" lon="5.79096">
        <ele>956</ele>
        <time>2022-01-12T12:30:00.565Z</time>
      </trkpt>
      <trkpt lat="45.36237" lon="5.791">
        <ele>958</ele>
        <time>2022-01-12T12:30:08.588Z</time>
      </trkpt>
      <trkpt lat="45.36243" lon="5.79112">
        <ele>960</ele>
        <time>2022-01-12T12:30:18.595Z</time>
      </trkpt>
      <trkpt lat="45.36249" lon="5.79122">
        <ele>961</ele>
        <time>2022-01-12T12:30:29.551Z</time>
      </trkpt>
      <trkpt lat="45.36257" lon="5.79129">
        <ele>962</ele>
        <time>2022-01-12T12:30:39.522Z</time>
      </trkpt>
      <trkpt lat="45.36266" lon="5.79132">
        <ele>963</ele>
        <time>2022-01-12T12:30:49.598Z</time>
      </trkpt>
      <trkpt lat="45.36275" lon="5.79139">
        <ele>964</ele>
        <time>2022-01-12T12:30:58.570Z</time>
      </trkpt>
      <trkpt lat="45.36277" lon="5.79149">
        <ele>964</ele>
        <time>2022-01-12T12:31:09.551Z</time>
      </trkpt>
      <trkpt lat="45.36277" lon="5.79149">
        <ele>964</ele>
        <time>2022-01-12T12:31:15.536Z</time>
      </trkpt>
      <trkpt lat="45.3628" lon="5.79152">
        <ele>964</ele>
        <time>2022-01-12T12:31:16.557Z</time>
      </trkpt>
      <trkpt lat="45.3629" lon="5.79153">
        <ele>965</ele>
        <time>2022-01-12T12:31:30.559Z</time>
      </trkpt>
      <trkpt lat="45.36299" lon="5.79151">
        <ele>966</ele>
        <time>2022-01-12T12:31:37.605Z</time>
      </trkpt>
      <trkpt lat="45.36309" lon="5.79151">
        <ele>968</ele>
        <time>2022-01-12T12:31:49.562Z</time>
      </trkpt>
      <trkpt lat="45.36318" lon="5.79148">
        <ele>971</ele>
        <time>2022-01-12T12:31:58.561Z</time>
      </trkpt>
      <trkpt lat="45.36329" lon="5.79151">
        <ele>973</ele>
        <time>2022-01-12T12:32:08.529Z</time>
      </trkpt>
      <trkpt lat="45.36338" lon="5.79154">
        <ele>974</ele>
        <time>2022-01-12T12:32:16.576Z</time>
      </trkpt>
      <trkpt lat="45.36346" lon="5.79161">
        <ele>976</ele>
        <time>2022-01-12T12:32:26.559Z</time>
      </trkpt>
      <trkpt lat="45.36354" lon="5.79166">
        <ele>977</ele>
        <time>2022-01-12T12:32:34.580Z</time>
      </trkpt>
      <trkpt lat="45.36359" lon="5.79178">
        <ele>978</ele>
        <time>2022-01-12T12:32:44.570Z</time>
      </trkpt>
      <trkpt lat="45.36367" lon="5.7918">
        <ele>980</ele>
        <time>2022-01-12T12:32:53.585Z</time>
      </trkpt>
      <trkpt lat="45.36374" lon="5.79191">
        <ele>982</ele>
        <time>2022-01-12T12:33:02.587Z</time>
      </trkpt>
      <trkpt lat="45.36381" lon="5.792">
        <ele>984</ele>
        <time>2022-01-12T12:33:11.613Z</time>
      </trkpt>
      <trkpt lat="45.3639" lon="5.79203">
        <ele>986</ele>
        <time>2022-01-12T12:33:20.564Z</time>
      </trkpt>
      <trkpt lat="45.364" lon="5.79202">
        <ele>988</ele>
        <time>2022-01-12T12:33:30.561Z</time>
      </trkpt>
      <trkpt lat="45.36409" lon="5.79206">
        <ele>990</ele>
        <time>2022-01-12T12:33:40.582Z</time>
      </trkpt>
      <trkpt lat="45.36418" lon="5.79212">
        <ele>990</ele>
        <time>2022-01-12T12:33:51.574Z</time>
      </trkpt>
      <trkpt lat="45.36427" lon="5.79216">
        <ele>991</ele>
        <time>2022-01-12T12:34:01.576Z</time>
      </trkpt>
      <trkpt lat="45.36435" lon="5.79222">
        <ele>992</ele>
        <time>2022-01-12T12:34:17.567Z</time>
      </trkpt>
      <trkpt lat="45.36444" lon="5.79228">
        <ele>993</ele>
        <time>2022-01-12T12:34:27.577Z</time>
      </trkpt>
      <trkpt lat="45.36452" lon="5.79235">
        <ele>995</ele>
        <time>2022-01-12T12:34:37.585Z</time>
      </trkpt>
      <trkpt lat="45.3646" lon="5.79244">
        <ele>997</ele>
        <time>2022-01-12T12:34:46.578Z</time>
      </trkpt>
      <trkpt lat="45.36467" lon="5.79254">
        <ele>999</ele>
        <time>2022-01-12T12:34:55.592Z</time>
      </trkpt>
      <trkpt lat="45.36475" lon="5.79261">
        <ele>1000</ele>
        <time>2022-01-12T12:35:04.562Z</time>
      </trkpt>
      <trkpt lat="45.36485" lon="5.79268">
        <ele>1001</ele>
        <time>2022-01-12T12:35:14.563Z</time>
      </trkpt>
      <trkpt lat="45.36493" lon="5.79273">
        <ele>1002</ele>
        <time>2022-01-12T12:35:23.560Z</time>
      </trkpt>
      <trkpt lat="45.36497" lon="5.79285">
        <ele>1002</ele>
        <time>2022-01-12T12:35:31.573Z</time>
      </trkpt>
      <trkpt lat="45.36502" lon="5.79297">
        <ele>1003</ele>
        <time>2022-01-12T12:35:39.568Z</time>
      </trkpt>
      <trkpt lat="45.3651" lon="5.79303">
        <ele>1003</ele>
        <time>2022-01-12T12:35:48.565Z</time>
      </trkpt>
      <trkpt lat="45.36518" lon="5.7931">
        <ele>1003</ele>
        <time>2022-01-12T12:35:56.562Z</time>
      </trkpt>
      <trkpt lat="45.36524" lon="5.7932">
        <ele>1003</ele>
        <time>2022-01-12T12:36:06.568Z</time>
      </trkpt>
      <trkpt lat="45.36533" lon="5.79325">
        <ele>1002</ele>
        <time>2022-01-12T12:36:15.517Z</time>
      </trkpt>
      <trkpt lat="45.36541" lon="5.7933">
        <ele>1003</ele>
        <time>2022-01-12T12:36:26.544Z</time>
      </trkpt>
      <trkpt lat="45.36549" lon="5.79337">
        <ele>1004</ele>
        <time>2022-01-12T12:36:35.556Z</time>
      </trkpt>
      <trkpt lat="45.36559" lon="5.79338">
        <ele>1005</ele>
        <time>2022-01-12T12:36:43.563Z</time>
      </trkpt>
      <trkpt lat="45.36568" lon="5.79335">
        <ele>1007</ele>
        <time>2022-01-12T12:36:53.588Z</time>
      </trkpt>
      <trkpt lat="45.36575" lon="5.79343">
        <ele>1008</ele>
        <time>2022-01-12T12:37:00.561Z</time>
      </trkpt>
      <trkpt lat="45.36583" lon="5.7935">
        <ele>1009</ele>
        <time>2022-01-12T12:37:09.573Z</time>
      </trkpt>
      <trkpt lat="45.36593" lon="5.79351">
        <ele>1010</ele>
        <time>2022-01-12T12:37:19.585Z</time>
      </trkpt>
      <trkpt lat="45.36602" lon="5.79349">
        <ele>1010</ele>
        <time>2022-01-12T12:37:28.569Z</time>
      </trkpt>
      <trkpt lat="45.36611" lon="5.79346">
        <ele>1010</ele>
        <time>2022-01-12T12:37:37.578Z</time>
      </trkpt>
      <trkpt lat="45.3662" lon="5.79342">
        <ele>1009</ele>
        <time>2022-01-12T12:37:46.570Z</time>
      </trkpt>
      <trkpt lat="45.3663" lon="5.7934">
        <ele>1009</ele>
        <time>2022-01-12T12:37:56.543Z</time>
      </trkpt>
      <trkpt lat="45.36639" lon="5.79338">
        <ele>1008</ele>
        <time>2022-01-12T12:38:05.534Z</time>
      </trkpt>
      <trkpt lat="45.36647" lon="5.79337">
        <ele>1008</ele>
        <time>2022-01-12T12:38:17.568Z</time>
      </trkpt>
      <trkpt lat="45.36647" lon="5.79337">
        <ele>1008</ele>
        <time>2022-01-12T12:38:24.557Z</time>
      </trkpt>
      <trkpt lat="45.36651" lon="5.79337">
        <ele>1008</ele>
        <time>2022-01-12T12:38:25.559Z</time>
      </trkpt>
      <trkpt lat="45.36661" lon="5.7934">
        <ele>1009</ele>
        <time>2022-01-12T12:38:36.538Z</time>
      </trkpt>
      <trkpt lat="45.3667" lon="5.79339">
        <ele>1010</ele>
        <time>2022-01-12T12:38:45.556Z</time>
      </trkpt>
      <trkpt lat="45.36671" lon="5.79339">
        <ele>1011</ele>
        <time>2022-01-12T12:38:47.567Z</time>
      </trkpt>
      <trkpt lat="45.36671" lon="5.79339">
        <ele>1011</ele>
        <time>2022-01-12T12:39:09.565Z</time>
      </trkpt>
      <trkpt lat="45.36674" lon="5.79336">
        <ele>1014</ele>
        <time>2022-01-12T12:39:10.587Z</time>
      </trkpt>
      <trkpt lat="45.36682" lon="5.79332">
        <ele>1015</ele>
        <time>2022-01-12T12:39:25.589Z</time>
      </trkpt>
      <trkpt lat="45.36691" lon="5.79327">
        <ele>1015</ele>
        <time>2022-01-12T12:39:37.573Z</time>
      </trkpt>
      <trkpt lat="45.36702" lon="5.79328">
        <ele>1015</ele>
        <time>2022-01-12T12:39:47.547Z</time>
      </trkpt>
      <trkpt lat="45.36711" lon="5.79331">
        <ele>1014</ele>
        <time>2022-01-12T12:39:56.548Z</time>
      </trkpt>
      <trkpt lat="45.3672" lon="5.79332">
        <ele>1014</ele>
        <time>2022-01-12T12:40:05.574Z</time>
      </trkpt>
      <trkpt lat="45.36729" lon="5.79327">
        <ele>1014</ele>
        <time>2022-01-12T12:40:16.544Z</time>
      </trkpt>
      <trkpt lat="45.36738" lon="5.79327">
        <ele>1015</ele>
        <time>2022-01-12T12:40:29.550Z</time>
      </trkpt>
      <trkpt lat="45.36747" lon="5.79329">
        <ele>1015</ele>
        <time>2022-01-12T12:40:37.579Z</time>
      </trkpt>
      <trkpt lat="45.36757" lon="5.79329">
        <ele>1016</ele>
        <time>2022-01-12T12:40:45.592Z</time>
      </trkpt>
      <trkpt lat="45.36766" lon="5.79331">
        <ele>1016</ele>
        <time>2022-01-12T12:40:50.571Z</time>
      </trkpt>
      <trkpt lat="45.36776" lon="5.79333">
        <ele>1017</ele>
        <time>2022-01-12T12:40:57.564Z</time>
      </trkpt>
      <trkpt lat="45.36785" lon="5.79339">
        <ele>1018</ele>
        <time>2022-01-12T12:41:04.591Z</time>
      </trkpt>
      <trkpt lat="45.36794" lon="5.79344">
        <ele>1020</ele>
        <time>2022-01-12T12:41:15.582Z</time>
      </trkpt>
      <trkpt lat="45.36803" lon="5.79349">
        <ele>1022</ele>
        <time>2022-01-12T12:41:23.572Z</time>
      </trkpt>
      <trkpt lat="45.36812" lon="5.79353">
        <ele>1024</ele>
        <time>2022-01-12T12:41:31.579Z</time>
      </trkpt>
      <trkpt lat="45.36819" lon="5.7936">
        <ele>1026</ele>
        <time>2022-01-12T12:41:40.555Z</time>
      </trkpt>
      <trkpt lat="45.36828" lon="5.79367">
        <ele>1027</ele>
        <time>2022-01-12T12:41:48.570Z</time>
      </trkpt>
      <trkpt lat="45.36837" lon="5.79374">
        <ele>1029</ele>
        <time>2022-01-12T12:41:57.561Z</time>
      </trkpt>
      <trkpt lat="45.36846" lon="5.79378">
        <ele>1031</ele>
        <time>2022-01-12T12:42:07.583Z</time>
      </trkpt>
      <trkpt lat="45.36855" lon="5.79379">
        <ele>1032</ele>
        <time>2022-01-12T12:42:17.584Z</time>
      </trkpt>
      <trkpt lat="45.36865" lon="5.79381">
        <ele>1034</ele>
        <time>2022-01-12T12:42:27.582Z</time>
      </trkpt>
      <trkpt lat="45.36875" lon="5.79381">
        <ele>1035</ele>
        <time>2022-01-12T12:42:38.583Z</time>
      </trkpt>
      <trkpt lat="45.36883" lon="5.79378">
        <ele>1035</ele>
        <time>2022-01-12T12:42:49.581Z</time>
      </trkpt>
      <trkpt lat="45.36893" lon="5.79378">
        <ele>1036</ele>
        <time>2022-01-12T12:42:59.532Z</time>
      </trkpt>
      <trkpt lat="45.36902" lon="5.79375">
        <ele>1036</ele>
        <time>2022-01-12T12:43:12.564Z</time>
      </trkpt>
      <trkpt lat="45.36911" lon="5.79379">
        <ele>1037</ele>
        <time>2022-01-12T12:43:22.583Z</time>
      </trkpt>
      <trkpt lat="45.36921" lon="5.79379">
        <ele>1039</ele>
        <time>2022-01-12T12:43:33.545Z</time>
      </trkpt>
      <trkpt lat="45.36931" lon="5.79378">
        <ele>1040</ele>
        <time>2022-01-12T12:43:44.568Z</time>
      </trkpt>
      <trkpt lat="45.3694" lon="5.79377">
        <ele>1042</ele>
        <time>2022-01-12T12:43:56.566Z</time>
      </trkpt>
      <trkpt lat="45.3695" lon="5.79379">
        <ele>1043</ele>
        <time>2022-01-12T12:44:03.579Z</time>
      </trkpt>
      <trkpt lat="45.36959" lon="5.79373">
        <ele>1044</ele>
        <time>2022-01-12T12:44:11.579Z</time>
      </trkpt>
      <trkpt lat="45.36966" lon="5.79364">
        <ele>1045</ele>
        <time>2022-01-12T12:44:20.552Z</time>
      </trkpt>
      <trkpt lat="45.36975" lon="5.79356">
        <ele>1046</ele>
        <time>2022-01-12T12:44:29.575Z</time>
      </trkpt>
      <trkpt lat="45.36983" lon="5.7935">
        <ele>1047</ele>
        <time>2022-01-12T12:44:36.566Z</time>
      </trkpt>
      <trkpt lat="45.36992" lon="5.79346">
        <ele>1048</ele>
        <time>2022-01-12T12:44:44.563Z</time>
      </trkpt>
      <trkpt lat="45.37001" lon="5.79342">
        <ele>1049</ele>
        <time>2022-01-12T12:44:57.566Z</time>
      </trkpt>
      <trkpt lat="45.3701" lon="5.79342">
        <ele>1050</ele>
        <time>2022-01-12T12:45:07.578Z</time>
      </trkpt>
      <trkpt lat="45.37019" lon="5.79343">
        <ele>1051</ele>
        <time>2022-01-12T12:45:16.576Z</time>
      </trkpt>
      <trkpt lat="45.37028" lon="5.79337">
        <ele>1052</ele>
        <time>2022-01-12T12:45:26.586Z</time>
      </trkpt>
      <trkpt lat="45.37035" lon="5.79328">
        <ele>1053</ele>
        <time>2022-01-12T12:45:34.578Z</time>
      </trkpt>
      <trkpt lat="45.37043" lon="5.7932">
        <ele>1054</ele>
        <time>2022-01-12T12:45:43.534Z</time>
      </trkpt>
      <trkpt lat="45.3705" lon="5.7931">
        <ele>1055</ele>
        <time>2022-01-12T12:45:50.567Z</time>
      </trkpt>
      <trkpt lat="45.37058" lon="5.79305">
        <ele>1055</ele>
        <time>2022-01-12T12:46:01.571Z</time>
      </trkpt>
      <trkpt lat="45.37066" lon="5.79298">
        <ele>1056</ele>
        <time>2022-01-12T12:46:12.558Z</time>
      </trkpt>
      <trkpt lat="45.37076" lon="5.79295">
        <ele>1058</ele>
        <time>2022-01-12T12:46:24.534Z</time>
      </trkpt>
      <trkpt lat="45.37085" lon="5.79295">
        <ele>1059</ele>
        <time>2022-01-12T12:46:32.588Z</time>
      </trkpt>
      <trkpt lat="45.37094" lon="5.79292">
        <ele>1060</ele>
        <time>2022-01-12T12:46:43.563Z</time>
      </trkpt>
      <trkpt lat="45.37104" lon="5.79287">
        <ele>1062</ele>
        <time>2022-01-12T12:46:53.584Z</time>
      </trkpt>
      <trkpt lat="45.37113" lon="5.79289">
        <ele>1064</ele>
        <time>2022-01-12T12:47:03.590Z</time>
      </trkpt>
      <trkpt lat="45.37123" lon="5.79289">
        <ele>1066</ele>
        <time>2022-01-12T12:47:12.570Z</time>
      </trkpt>
      <trkpt lat="45.37132" lon="5.79288">
        <ele>1068</ele>
        <time>2022-01-12T12:47:19.570Z</time>
      </trkpt>
      <trkpt lat="45.37142" lon="5.79287">
        <ele>1070</ele>
        <time>2022-01-12T12:47:27.569Z</time>
      </trkpt>
      <trkpt lat="45.37152" lon="5.7929">
        <ele>1073</ele>
        <time>2022-01-12T12:47:36.573Z</time>
      </trkpt>
      <trkpt lat="45.37162" lon="5.79292">
        <ele>1075</ele>
        <time>2022-01-12T12:47:43.579Z</time>
      </trkpt>
      <trkpt lat="45.37171" lon="5.79294">
        <ele>1078</ele>
        <time>2022-01-12T12:47:51.576Z</time>
      </trkpt>
      <trkpt lat="45.3718" lon="5.79298">
        <ele>1080</ele>
        <time>2022-01-12T12:47:59.595Z</time>
      </trkpt>
      <trkpt lat="45.37189" lon="5.79299">
        <ele>1083</ele>
        <time>2022-01-12T12:48:07.568Z</time>
      </trkpt>
      <trkpt lat="45.37199" lon="5.793">
        <ele>1086</ele>
        <time>2022-01-12T12:48:17.583Z</time>
      </trkpt>
      <trkpt lat="45.37208" lon="5.79301">
        <ele>1088</ele>
        <time>2022-01-12T12:48:24.559Z</time>
      </trkpt>
      <trkpt lat="45.37218" lon="5.79303">
        <ele>1091</ele>
        <time>2022-01-12T12:48:32.548Z</time>
      </trkpt>
      <trkpt lat="45.37226" lon="5.79308">
        <ele>1092</ele>
        <time>2022-01-12T12:48:39.576Z</time>
      </trkpt>
      <trkpt lat="45.37234" lon="5.79316">
        <ele>1094</ele>
        <time>2022-01-12T12:48:46.561Z</time>
      </trkpt>
      <trkpt lat="45.37241" lon="5.79324">
        <ele>1096</ele>
        <time>2022-01-12T12:48:53.579Z</time>
      </trkpt>
      <trkpt lat="45.37248" lon="5.79333">
        <ele>1097</ele>
        <time>2022-01-12T12:49:02.568Z</time>
      </trkpt>
      <trkpt lat="45.37255" lon="5.79343">
        <ele>1099</ele>
        <time>2022-01-12T12:49:11.527Z</time>
      </trkpt>
      <trkpt lat="45.37263" lon="5.79347">
        <ele>1102</ele>
        <time>2022-01-12T12:49:20.535Z</time>
      </trkpt>
      <trkpt lat="45.37267" lon="5.79353">
        <ele>1104</ele>
        <time>2022-01-12T12:49:29.567Z</time>
      </trkpt>
      <trkpt lat="45.37267" lon="5.79353">
        <ele>1104</ele>
        <time>2022-01-12T12:50:51.568Z</time>
      </trkpt>
      <trkpt lat="45.37268" lon="5.79359">
        <ele>1105</ele>
        <time>2022-01-12T12:50:52.563Z</time>
      </trkpt>
      <trkpt lat="45.37277" lon="5.79365">
        <ele>1104</ele>
        <time>2022-01-12T12:51:04.577Z</time>
      </trkpt>
      <trkpt lat="45.37282" lon="5.79375">
        <ele>1104</ele>
        <time>2022-01-12T12:51:12.552Z</time>
      </trkpt>
      <trkpt lat="45.37291" lon="5.79383">
        <ele>1104</ele>
        <time>2022-01-12T12:51:22.566Z</time>
      </trkpt>
      <trkpt lat="45.37299" lon="5.79391">
        <ele>1104</ele>
        <time>2022-01-12T12:51:31.551Z</time>
      </trkpt>
      <trkpt lat="45.37303" lon="5.79402">
        <ele>1105</ele>
        <time>2022-01-12T12:51:40.532Z</time>
      </trkpt>
      <trkpt lat="45.3731" lon="5.79412">
        <ele>1106</ele>
        <time>2022-01-12T12:51:50.520Z</time>
      </trkpt>
      <trkpt lat="45.37316" lon="5.79424">
        <ele>1108</ele>
        <time>2022-01-12T12:51:59.555Z</time>
      </trkpt>
      <trkpt lat="45.37321" lon="5.79435">
        <ele>1109</ele>
        <time>2022-01-12T12:52:09.529Z</time>
      </trkpt>
      <trkpt lat="45.37325" lon="5.79446">
        <ele>1111</ele>
        <time>2022-01-12T12:52:20.533Z</time>
      </trkpt>
      <trkpt lat="45.37333" lon="5.79454">
        <ele>1113</ele>
        <time>2022-01-12T12:52:29.539Z</time>
      </trkpt>
      <trkpt lat="45.37341" lon="5.7946">
        <ele>1115</ele>
        <time>2022-01-12T12:52:40.521Z</time>
      </trkpt>
      <trkpt lat="45.37349" lon="5.79467">
        <ele>1118</ele>
        <time>2022-01-12T12:52:51.538Z</time>
      </trkpt>
      <trkpt lat="45.37358" lon="5.79473">
        <ele>1121</ele>
        <time>2022-01-12T12:53:00.524Z</time>
      </trkpt>
      <trkpt lat="45.37367" lon="5.79475">
        <ele>1124</ele>
        <time>2022-01-12T12:53:08.528Z</time>
      </trkpt>
      <trkpt lat="45.37376" lon="5.7948">
        <ele>1127</ele>
        <time>2022-01-12T12:53:17.554Z</time>
      </trkpt>
      <trkpt lat="45.37385" lon="5.79481">
        <ele>1129</ele>
        <time>2022-01-12T12:53:26.538Z</time>
      </trkpt>
      <trkpt lat="45.37393" lon="5.79487">
        <ele>1131</ele>
        <time>2022-01-12T12:53:35.524Z</time>
      </trkpt>
      <trkpt lat="45.374" lon="5.79494">
        <ele>1133</ele>
        <time>2022-01-12T12:53:44.527Z</time>
      </trkpt>
      <trkpt lat="45.37409" lon="5.795">
        <ele>1134</ele>
        <time>2022-01-12T12:53:53.523Z</time>
      </trkpt>
      <trkpt lat="45.37419" lon="5.79499">
        <ele>1135</ele>
        <time>2022-01-12T12:54:01.549Z</time>
      </trkpt>
      <trkpt lat="45.37428" lon="5.79502">
        <ele>1136</ele>
        <time>2022-01-12T12:54:09.525Z</time>
      </trkpt>
      <trkpt lat="45.37437" lon="5.79507">
        <ele>1137</ele>
        <time>2022-01-12T12:54:19.529Z</time>
      </trkpt>
      <trkpt lat="45.37445" lon="5.79514">
        <ele>1139</ele>
        <time>2022-01-12T12:54:27.528Z</time>
      </trkpt>
      <trkpt lat="45.37454" lon="5.79518">
        <ele>1140</ele>
        <time>2022-01-12T12:54:35.544Z</time>
      </trkpt>
      <trkpt lat="45.37463" lon="5.79524">
        <ele>1141</ele>
        <time>2022-01-12T12:54:43.540Z</time>
      </trkpt>
      <trkpt lat="45.37471" lon="5.7953">
        <ele>1142</ele>
        <time>2022-01-12T12:54:51.544Z</time>
      </trkpt>
      <trkpt lat="45.37481" lon="5.79532">
        <ele>1143</ele>
        <time>2022-01-12T12:55:00.519Z</time>
      </trkpt>
      <trkpt lat="45.37491" lon="5.79535">
        <ele>1143</ele>
        <time>2022-01-12T12:55:09.533Z</time>
      </trkpt>
      <trkpt lat="45.37499" lon="5.79539">
        <ele>1144</ele>
        <time>2022-01-12T12:55:18.524Z</time>
      </trkpt>
      <trkpt lat="45.37509" lon="5.79539">
        <ele>1145</ele>
        <time>2022-01-12T12:55:26.535Z</time>
      </trkpt>
      <trkpt lat="45.37518" lon="5.79542">
        <ele>1145</ele>
        <time>2022-01-12T12:55:34.532Z</time>
      </trkpt>
      <trkpt lat="45.37523" lon="5.79554">
        <ele>1146</ele>
        <time>2022-01-12T12:55:42.546Z</time>
      </trkpt>
      <trkpt lat="45.37525" lon="5.79567">
        <ele>1146</ele>
        <time>2022-01-12T12:55:51.519Z</time>
      </trkpt>
      <trkpt lat="45.37529" lon="5.79579">
        <ele>1147</ele>
        <time>2022-01-12T12:56:01.541Z</time>
      </trkpt>
      <trkpt lat="45.37531" lon="5.79593">
        <ele>1150</ele>
        <time>2022-01-12T12:56:16.539Z</time>
      </trkpt>
      <trkpt lat="45.37535" lon="5.79605">
        <ele>1154</ele>
        <time>2022-01-12T12:56:35.548Z</time>
      </trkpt>
      <trkpt lat="45.37538" lon="5.79618">
        <ele>1156</ele>
        <time>2022-01-12T12:56:49.547Z</time>
      </trkpt>
      <trkpt lat="45.37544" lon="5.79629">
        <ele>1158</ele>
        <time>2022-01-12T12:57:03.548Z</time>
      </trkpt>
      <trkpt lat="45.37553" lon="5.79633">
        <ele>1158</ele>
        <time>2022-01-12T12:57:16.559Z</time>
      </trkpt>
      <trkpt lat="45.37552" lon="5.79646">
        <ele>1161</ele>
        <time>2022-01-12T12:57:37.524Z</time>
      </trkpt>
      <trkpt lat="45.37548" lon="5.79657">
        <ele>1163</ele>
        <time>2022-01-12T12:57:50.532Z</time>
      </trkpt>
      <trkpt lat="45.37553" lon="5.79669">
        <ele>1166</ele>
        <time>2022-01-12T12:58:04.542Z</time>
      </trkpt>
      <trkpt lat="45.37561" lon="5.79676">
        <ele>1168</ele>
        <time>2022-01-12T12:58:14.559Z</time>
      </trkpt>
      <trkpt lat="45.37567" lon="5.79686">
        <ele>1171</ele>
        <time>2022-01-12T12:58:28.536Z</time>
      </trkpt>
      <trkpt lat="45.37572" lon="5.79697">
        <ele>1173</ele>
        <time>2022-01-12T12:58:37.537Z</time>
      </trkpt>
      <trkpt lat="45.37577" lon="5.79707">
        <ele>1176</ele>
        <time>2022-01-12T12:58:48.534Z</time>
      </trkpt>
      <trkpt lat="45.37585" lon="5.79716">
        <ele>1179</ele>
        <time>2022-01-12T12:59:03.535Z</time>
      </trkpt>
      <trkpt lat="45.37594" lon="5.79721">
        <ele>1181</ele>
        <time>2022-01-12T12:59:13.547Z</time>
      </trkpt>
      <trkpt lat="45.37601" lon="5.7973">
        <ele>1183</ele>
        <time>2022-01-12T12:59:25.559Z</time>
      </trkpt>
      <trkpt lat="45.37608" lon="5.79738">
        <ele>1186</ele>
        <time>2022-01-12T12:59:38.544Z</time>
      </trkpt>
      <trkpt lat="45.37614" lon="5.79749">
        <ele>1189</ele>
        <time>2022-01-12T12:59:51.560Z</time>
      </trkpt>
      <trkpt lat="45.37614" lon="5.79762">
        <ele>1192</ele>
        <time>2022-01-12T13:00:06.548Z</time>
      </trkpt>
      <trkpt lat="45.37615" lon="5.79775">
        <ele>1194</ele>
        <time>2022-01-12T13:00:16.571Z</time>
      </trkpt>
      <trkpt lat="45.3762" lon="5.79786">
        <ele>1196</ele>
        <time>2022-01-12T13:00:31.573Z</time>
      </trkpt>
      <trkpt lat="45.3762" lon="5.79787">
        <ele>1196</ele>
        <time>2022-01-12T13:00:32.580Z</time>
      </trkpt>
      <trkpt lat="45.3762" lon="5.79787">
        <ele>1196</ele>
        <time>2022-01-12T13:00:41.541Z</time>
      </trkpt>
      <trkpt lat="45.37623" lon="5.7979">
        <ele>1195</ele>
        <time>2022-01-12T13:00:42.553Z</time>
      </trkpt>
      <trkpt lat="45.37625" lon="5.79803">
        <ele>1194</ele>
        <time>2022-01-12T13:00:55.584Z</time>
      </trkpt>
      <trkpt lat="45.37628" lon="5.79815">
        <ele>1193</ele>
        <time>2022-01-12T13:01:03.603Z</time>
      </trkpt>
      <trkpt lat="45.37631" lon="5.79829">
        <ele>1193</ele>
        <time>2022-01-12T13:01:13.572Z</time>
      </trkpt>
      <trkpt lat="45.37637" lon="5.79838">
        <ele>1195</ele>
        <time>2022-01-12T13:01:24.576Z</time>
      </trkpt>
      <trkpt lat="45.37645" lon="5.79845">
        <ele>1197</ele>
        <time>2022-01-12T13:01:33.569Z</time>
      </trkpt>
      <trkpt lat="45.37654" lon="5.79852">
        <ele>1200</ele>
        <time>2022-01-12T13:01:43.565Z</time>
      </trkpt>
      <trkpt lat="45.37663" lon="5.79853">
        <ele>1203</ele>
        <time>2022-01-12T13:01:55.553Z</time>
      </trkpt>
      <trkpt lat="45.37672" lon="5.7986">
        <ele>1205</ele>
        <time>2022-01-12T13:02:06.569Z</time>
      </trkpt>
      <trkpt lat="45.37679" lon="5.79868">
        <ele>1206</ele>
        <time>2022-01-12T13:02:17.581Z</time>
      </trkpt>
      <trkpt lat="45.37687" lon="5.79874">
        <ele>1207</ele>
        <time>2022-01-12T13:02:26.566Z</time>
      </trkpt>
      <trkpt lat="45.37696" lon="5.7988">
        <ele>1208</ele>
        <time>2022-01-12T13:02:37.573Z</time>
      </trkpt>
      <trkpt lat="45.37699" lon="5.79892">
        <ele>1209</ele>
        <time>2022-01-12T13:02:47.575Z</time>
      </trkpt>
      <trkpt lat="45.37705" lon="5.79902">
        <ele>1211</ele>
        <time>2022-01-12T13:02:58.577Z</time>
      </trkpt>
      <trkpt lat="45.37715" lon="5.79906">
        <ele>1212</ele>
        <time>2022-01-12T13:03:09.569Z</time>
      </trkpt>
      <trkpt lat="45.37723" lon="5.79914">
        <ele>1213</ele>
        <time>2022-01-12T13:03:21.576Z</time>
      </trkpt>
      <trkpt lat="45.37733" lon="5.79913">
        <ele>1214</ele>
        <time>2022-01-12T13:03:29.584Z</time>
      </trkpt>
      <trkpt lat="45.37742" lon="5.79915">
        <ele>1215</ele>
        <time>2022-01-12T13:03:38.562Z</time>
      </trkpt>
      <trkpt lat="45.37752" lon="5.79914">
        <ele>1216</ele>
        <time>2022-01-12T13:03:47.601Z</time>
      </trkpt>
      <trkpt lat="45.37762" lon="5.79918">
        <ele>1217</ele>
        <time>2022-01-12T13:03:57.594Z</time>
      </trkpt>
      <trkpt lat="45.37769" lon="5.79927">
        <ele>1218</ele>
        <time>2022-01-12T13:04:09.562Z</time>
      </trkpt>
      <trkpt lat="45.37778" lon="5.79932">
        <ele>1219</ele>
        <time>2022-01-12T13:04:23.597Z</time>
      </trkpt>
      <trkpt lat="45.37787" lon="5.79936">
        <ele>1221</ele>
        <time>2022-01-12T13:04:34.581Z</time>
      </trkpt>
      <trkpt lat="45.37797" lon="5.7994">
        <ele>1223</ele>
        <time>2022-01-12T13:04:44.560Z</time>
      </trkpt>
      <trkpt lat="45.37805" lon="5.79946">
        <ele>1225</ele>
        <time>2022-01-12T13:04:55.577Z</time>
      </trkpt>
      <trkpt lat="45.37814" lon="5.7995">
        <ele>1227</ele>
        <time>2022-01-12T13:05:06.561Z</time>
      </trkpt>
      <trkpt lat="45.37824" lon="5.7995">
        <ele>1229</ele>
        <time>2022-01-12T13:05:15.539Z</time>
      </trkpt>
      <trkpt lat="45.37834" lon="5.7995">
        <ele>1231</ele>
        <time>2022-01-12T13:05:27.541Z</time>
      </trkpt>
      <trkpt lat="45.37843" lon="5.79956">
        <ele>1233</ele>
        <time>2022-01-12T13:05:36.564Z</time>
      </trkpt>
      <trkpt lat="45.37852" lon="5.79962">
        <ele>1235</ele>
        <time>2022-01-12T13:05:44.574Z</time>
      </trkpt>
      <trkpt lat="45.3786" lon="5.79967">
        <ele>1237</ele>
        <time>2022-01-12T13:05:54.557Z</time>
      </trkpt>
      <trkpt lat="45.37868" lon="5.79975">
        <ele>1240</ele>
        <time>2022-01-12T13:06:04.567Z</time>
      </trkpt>
      <trkpt lat="45.37876" lon="5.79983">
        <ele>1245</ele>
        <time>2022-01-12T13:06:17.556Z</time>
      </trkpt>
      <trkpt lat="45.37884" lon="5.7999">
        <ele>1247</ele>
        <time>2022-01-12T13:06:26.573Z</time>
      </trkpt>
      <trkpt lat="45.3789" lon="5.79993">
        <ele>1249</ele>
        <time>2022-01-12T13:06:33.597Z</time>
      </trkpt>
      <trkpt lat="45.3789" lon="5.79993">
        <ele>1249</ele>
        <time>2022-01-12T13:06:41.603Z</time>
      </trkpt>
      <trkpt lat="45.37894" lon="5.79995">
        <ele>1251</ele>
        <time>2022-01-12T13:06:42.623Z</time>
      </trkpt>
      <trkpt lat="45.37902" lon="5.80002">
        <ele>1256</ele>
        <time>2022-01-12T13:07:00.583Z</time>
      </trkpt>
      <trkpt lat="45.3791" lon="5.8001">
        <ele>1258</ele>
        <time>2022-01-12T13:07:11.568Z</time>
      </trkpt>
      <trkpt lat="45.37918" lon="5.80016">
        <ele>1260</ele>
        <time>2022-01-12T13:07:21.571Z</time>
      </trkpt>
      <trkpt lat="45.37925" lon="5.80026">
        <ele>1261</ele>
        <time>2022-01-12T13:07:32.544Z</time>
      </trkpt>
      <trkpt lat="45.37934" lon="5.80031">
        <ele>1262</ele>
        <time>2022-01-12T13:07:40.547Z</time>
      </trkpt>
      <trkpt lat="45.37943" lon="5.80034">
        <ele>1263</ele>
        <time>2022-01-12T13:07:50.572Z</time>
      </trkpt>
      <trkpt lat="45.37953" lon="5.80038">
        <ele>1264</ele>
        <time>2022-01-12T13:07:59.599Z</time>
      </trkpt>
      <trkpt lat="45.37958" lon="5.80048">
        <ele>1266</ele>
        <time>2022-01-12T13:08:11.569Z</time>
      </trkpt>
      <trkpt lat="45.37959" lon="5.80053">
        <ele>1267</ele>
        <time>2022-01-12T13:08:19.604Z</time>
      </trkpt>
      <trkpt lat="45.37959" lon="5.80053">
        <ele>1267</ele>
        <time>2022-01-12T13:09:02.572Z</time>
      </trkpt>
      <trkpt lat="45.37963" lon="5.80056">
        <ele>1277</ele>
        <time>2022-01-12T13:09:03.596Z</time>
      </trkpt>
      <trkpt lat="45.37963" lon="5.80069">
        <ele>1278</ele>
        <time>2022-01-12T13:09:13.567Z</time>
      </trkpt>
      <trkpt lat="45.37964" lon="5.80082">
        <ele>1278</ele>
        <time>2022-01-12T13:09:25.546Z</time>
      </trkpt>
      <trkpt lat="45.37966" lon="5.80095">
        <ele>1279</ele>
        <time>2022-01-12T13:09:41.592Z</time>
      </trkpt>
      <trkpt lat="45.37967" lon="5.80109">
        <ele>1280</ele>
        <time>2022-01-12T13:09:52.571Z</time>
      </trkpt>
      <trkpt lat="45.37966" lon="5.80123">
        <ele>1282</ele>
        <time>2022-01-12T13:10:06.590Z</time>
      </trkpt>
      <trkpt lat="45.3796" lon="5.80133">
        <ele>1283</ele>
        <time>2022-01-12T13:10:18.572Z</time>
      </trkpt>
      <trkpt lat="45.37954" lon="5.80143">
        <ele>1284</ele>
        <time>2022-01-12T13:10:27.556Z</time>
      </trkpt>
      <trkpt lat="45.3795" lon="5.80155">
        <ele>1289</ele>
        <time>2022-01-12T13:10:54.566Z</time>
      </trkpt>
      <trkpt lat="45.37949" lon="5.80169">
        <ele>1292</ele>
        <time>2022-01-12T13:11:11.592Z</time>
      </trkpt>
      <trkpt lat="45.37951" lon="5.80182">
        <ele>1295</ele>
        <time>2022-01-12T13:11:32.575Z</time>
      </trkpt>
      <trkpt lat="45.37952" lon="5.80195">
        <ele>1298</ele>
        <time>2022-01-12T13:11:47.553Z</time>
      </trkpt>
      <trkpt lat="45.37947" lon="5.80206">
        <ele>1302</ele>
        <time>2022-01-12T13:12:05.600Z</time>
      </trkpt>
      <trkpt lat="45.37949" lon="5.80219">
        <ele>1305</ele>
        <time>2022-01-12T13:12:17.560Z</time>
      </trkpt>
      <trkpt lat="45.37955" lon="5.80229">
        <ele>1311</ele>
        <time>2022-01-12T13:12:41.580Z</time>
      </trkpt>
      <trkpt lat="45.37949" lon="5.80239">
        <ele>1314</ele>
        <time>2022-01-12T13:12:52.539Z</time>
      </trkpt>
      <trkpt lat="45.37951" lon="5.80251">
        <ele>1318</ele>
        <time>2022-01-12T13:13:09.594Z</time>
      </trkpt>
      <trkpt lat="45.37958" lon="5.80259">
        <ele>1320</ele>
        <time>2022-01-12T13:13:22.592Z</time>
      </trkpt>
      <trkpt lat="45.37964" lon="5.80269">
        <ele>1322</ele>
        <time>2022-01-12T13:13:34.582Z</time>
      </trkpt>
      <trkpt lat="45.37966" lon="5.80283">
        <ele>1326</ele>
        <time>2022-01-12T13:13:48.575Z</time>
      </trkpt>
      <trkpt lat="45.37969" lon="5.80295">
        <ele>1329</ele>
        <time>2022-01-12T13:14:00.583Z</time>
      </trkpt>
      <trkpt lat="45.37973" lon="5.80306">
        <ele>1332</ele>
        <time>2022-01-12T13:14:11.584Z</time>
      </trkpt>
      <trkpt lat="45.37979" lon="5.80317">
        <ele>1334</ele>
        <time>2022-01-12T13:14:24.590Z</time>
      </trkpt>
      <trkpt lat="45.37983" lon="5.8033">
        <ele>1337</ele>
        <time>2022-01-12T13:14:39.574Z</time>
      </trkpt>
      <trkpt lat="45.37986" lon="5.80342">
        <ele>1340</ele>
        <time>2022-01-12T13:14:52.590Z</time>
      </trkpt>
      <trkpt lat="45.37994" lon="5.80347">
        <ele>1342</ele>
        <time>2022-01-12T13:15:05.583Z</time>
      </trkpt>
      <trkpt lat="45.37998" lon="5.80359">
        <ele>1345</ele>
        <time>2022-01-12T13:15:24.594Z</time>
      </trkpt>
      <trkpt lat="45.38006" lon="5.80367">
        <ele>1346</ele>
        <time>2022-01-12T13:15:34.577Z</time>
      </trkpt>
      <trkpt lat="45.38014" lon="5.80371">
        <ele>1348</ele>
        <time>2022-01-12T13:15:44.585Z</time>
      </trkpt>
      <trkpt lat="45.3802" lon="5.80382">
        <ele>1349</ele>
        <time>2022-01-12T13:15:56.568Z</time>
      </trkpt>
      <trkpt lat="45.38025" lon="5.80393">
        <ele>1351</ele>
        <time>2022-01-12T13:16:09.530Z</time>
      </trkpt>
      <trkpt lat="45.38031" lon="5.80403">
        <ele>1353</ele>
        <time>2022-01-12T13:16:27.582Z</time>
      </trkpt>
      <trkpt lat="45.38033" lon="5.80417">
        <ele>1354</ele>
        <time>2022-01-12T13:16:37.565Z</time>
      </trkpt>
      <trkpt lat="45.38038" lon="5.80427">
        <ele>1356</ele>
        <time>2022-01-12T13:16:50.572Z</time>
      </trkpt>
      <trkpt lat="45.38047" lon="5.80432">
        <ele>1358</ele>
        <time>2022-01-12T13:17:06.553Z</time>
      </trkpt>
      <trkpt lat="45.38047" lon="5.80432">
        <ele>1358</ele>
        <time>2022-01-12T13:17:11.571Z</time>
      </trkpt>
      <trkpt lat="45.38047" lon="5.80432">
        <ele>1358</ele>
        <time>2022-01-12T13:17:17.582Z</time>
      </trkpt>
      <trkpt lat="45.3805" lon="5.80434">
        <ele>1359</ele>
        <time>2022-01-12T13:17:18.583Z</time>
      </trkpt>
      <trkpt lat="45.38055" lon="5.80445">
        <ele>1361</ele>
        <time>2022-01-12T13:17:31.579Z</time>
      </trkpt>
      <trkpt lat="45.38059" lon="5.80458">
        <ele>1365</ele>
        <time>2022-01-12T13:17:54.567Z</time>
      </trkpt>
      <trkpt lat="45.38069" lon="5.80458">
        <ele>1366</ele>
        <time>2022-01-12T13:18:02.591Z</time>
      </trkpt>
      <trkpt lat="45.38078" lon="5.80455">
        <ele>1371</ele>
        <time>2022-01-12T13:18:14.568Z</time>
      </trkpt>
      <trkpt lat="45.38086" lon="5.80451">
        <ele>1378</ele>
        <time>2022-01-12T13:18:27.584Z</time>
      </trkpt>
      <trkpt lat="45.38096" lon="5.80449">
        <ele>1385</ele>
        <time>2022-01-12T13:18:39.557Z</time>
      </trkpt>
      <trkpt lat="45.38105" lon="5.80447">
        <ele>1391</ele>
        <time>2022-01-12T13:18:49.579Z</time>
      </trkpt>
      <trkpt lat="45.38113" lon="5.80453">
        <ele>1401</ele>
        <time>2022-01-12T13:19:11.581Z</time>
      </trkpt>
      <trkpt lat="45.38123" lon="5.80453">
        <ele>1404</ele>
        <time>2022-01-12T13:19:23.573Z</time>
      </trkpt>
      <trkpt lat="45.38126" lon="5.80461">
        <ele>1412</ele>
        <time>2022-01-12T13:19:46.620Z</time>
      </trkpt>
      <trkpt lat="45.38126" lon="5.80461">
        <ele>1412</ele>
        <time>2022-01-12T13:20:46.521Z</time>
      </trkpt>
      <trkpt lat="45.38126" lon="5.80467">
        <ele>1419</ele>
        <time>2022-01-12T13:20:47.542Z</time>
      </trkpt>
      <trkpt lat="45.38126" lon="5.80467">
        <ele>1420</ele>
        <time>2022-01-12T13:20:52.547Z</time>
      </trkpt>
      <trkpt lat="45.38126" lon="5.80467">
        <ele>1420</ele>
        <time>2022-01-12T13:21:37.557Z</time>
      </trkpt>
      <trkpt lat="45.38124" lon="5.80472">
        <ele>1426</ele>
        <time>2022-01-12T13:21:38.567Z</time>
      </trkpt>
      <trkpt lat="45.38116" lon="5.8048">
        <ele>1427</ele>
        <time>2022-01-12T13:21:50.527Z</time>
      </trkpt>
      <trkpt lat="45.38109" lon="5.80489">
        <ele>1428</ele>
        <time>2022-01-12T13:22:00.530Z</time>
      </trkpt>
      <trkpt lat="45.38104" lon="5.80501">
        <ele>1429</ele>
        <time>2022-01-12T13:22:12.552Z</time>
      </trkpt>
      <trkpt lat="45.381" lon="5.80513">
        <ele>1429</ele>
        <time>2022-01-12T13:22:21.536Z</time>
      </trkpt>
      <trkpt lat="45.38094" lon="5.80523">
        <ele>1429</ele>
        <time>2022-01-12T13:22:34.536Z</time>
      </trkpt>
      <trkpt lat="45.38089" lon="5.80534">
        <ele>1429</ele>
        <time>2022-01-12T13:22:43.537Z</time>
      </trkpt>
      <trkpt lat="45.38084" lon="5.80546">
        <ele>1429</ele>
        <time>2022-01-12T13:22:55.552Z</time>
      </trkpt>
      <trkpt lat="45.38079" lon="5.80558">
        <ele>1429</ele>
        <time>2022-01-12T13:23:03.532Z</time>
      </trkpt>
      <trkpt lat="45.38075" lon="5.8057">
        <ele>1429</ele>
        <time>2022-01-12T13:23:13.529Z</time>
      </trkpt>
      <trkpt lat="45.3807" lon="5.80578">
        <ele>1429</ele>
        <time>2022-01-12T13:23:24.538Z</time>
      </trkpt>
      <trkpt lat="45.3807" lon="5.80578">
        <ele>1429</ele>
        <time>2022-01-12T13:24:13.526Z</time>
      </trkpt>
      <trkpt lat="45.3807" lon="5.80584">
        <ele>1436</ele>
        <time>2022-01-12T13:24:14.529Z</time>
      </trkpt>
      <trkpt lat="45.38066" lon="5.80596">
        <ele>1437</ele>
        <time>2022-01-12T13:24:30.537Z</time>
      </trkpt>
      <trkpt lat="45.38076" lon="5.80595">
        <ele>1438</ele>
        <time>2022-01-12T13:24:48.546Z</time>
      </trkpt>
      <trkpt lat="45.38086" lon="5.80597">
        <ele>1440</ele>
        <time>2022-01-12T13:24:58.550Z</time>
      </trkpt>
      <trkpt lat="45.38095" lon="5.80594">
        <ele>1443</ele>
        <time>2022-01-12T13:25:13.526Z</time>
      </trkpt>
      <trkpt lat="45.38104" lon="5.80595">
        <ele>1447</ele>
        <time>2022-01-12T13:25:26.541Z</time>
      </trkpt>
      <trkpt lat="45.38112" lon="5.80602">
        <ele>1452</ele>
        <time>2022-01-12T13:25:42.545Z</time>
      </trkpt>
      <trkpt lat="45.38111" lon="5.80615">
        <ele>1454</ele>
        <time>2022-01-12T13:25:58.539Z</time>
      </trkpt>
      <trkpt lat="45.3812" lon="5.80612">
        <ele>1455</ele>
        <time>2022-01-12T13:26:23.565Z</time>
      </trkpt>
      <trkpt lat="45.38129" lon="5.80608">
        <ele>1456</ele>
        <time>2022-01-12T13:26:35.541Z</time>
      </trkpt>
      <trkpt lat="45.38136" lon="5.80615">
        <ele>1462</ele>
        <time>2022-01-12T13:26:54.558Z</time>
      </trkpt>
      <trkpt lat="45.38134" lon="5.8062">
        <ele>1465</ele>
        <time>2022-01-12T13:27:08.551Z</time>
      </trkpt>
      <trkpt lat="45.38134" lon="5.8062">
        <ele>1465</ele>
        <time>2022-01-12T13:28:59.546Z</time>
      </trkpt>
      <trkpt lat="45.38132" lon="5.80624">
        <ele>1468</ele>
        <time>2022-01-12T13:29:00.546Z</time>
      </trkpt>
      <trkpt lat="45.38132" lon="5.80636">
        <ele>1468</ele>
        <time>2022-01-12T13:29:16.582Z</time>
      </trkpt>
      <trkpt lat="45.38131" lon="5.80639">
        <ele>1469</ele>
        <time>2022-01-12T13:29:25.548Z</time>
      </trkpt>
      <trkpt lat="45.38131" lon="5.80639">
        <ele>1469</ele>
        <time>2022-01-12T13:29:42.533Z</time>
      </trkpt>
      <trkpt lat="45.38134" lon="5.80642">
        <ele>1469</ele>
        <time>2022-01-12T13:29:43.584Z</time>
      </trkpt>
      <trkpt lat="45.38135" lon="5.8064">
        <ele>1469</ele>
        <time>2022-01-12T13:29:49.565Z</time>
      </trkpt>
      <trkpt lat="45.38135" lon="5.8064">
        <ele>1469</ele>
        <time>2022-01-12T13:29:59.555Z</time>
      </trkpt>
      <trkpt lat="45.38136" lon="5.80646">
        <ele>1469</ele>
        <time>2022-01-12T13:30:00.520Z</time>
      </trkpt>
      <trkpt lat="45.38133" lon="5.80658">
        <ele>1468</ele>
        <time>2022-01-12T13:30:18.560Z</time>
      </trkpt>
      <trkpt lat="45.38134" lon="5.80673">
        <ele>1469</ele>
        <time>2022-01-12T13:30:31.589Z</time>
      </trkpt>
      <trkpt lat="45.38134" lon="5.80686">
        <ele>1469</ele>
        <time>2022-01-12T13:30:43.532Z</time>
      </trkpt>
      <trkpt lat="45.38138" lon="5.80699">
        <ele>1469</ele>
        <time>2022-01-12T13:30:58.569Z</time>
      </trkpt>
      <trkpt lat="45.38141" lon="5.80711">
        <ele>1469</ele>
        <time>2022-01-12T13:31:11.609Z</time>
      </trkpt>
      <trkpt lat="45.38146" lon="5.80722">
        <ele>1469</ele>
        <time>2022-01-12T13:31:24.587Z</time>
      </trkpt>
      <trkpt lat="45.38152" lon="5.80733">
        <ele>1469</ele>
        <time>2022-01-12T13:31:40.579Z</time>
      </trkpt>
      <trkpt lat="45.38157" lon="5.80743">
        <ele>1470</ele>
        <time>2022-01-12T13:31:51.586Z</time>
      </trkpt>
      <trkpt lat="45.38163" lon="5.80754">
        <ele>1471</ele>
        <time>2022-01-12T13:32:02.565Z</time>
      </trkpt>
      <trkpt lat="45.38168" lon="5.80764">
        <ele>1471</ele>
        <time>2022-01-12T13:32:15.560Z</time>
      </trkpt>
      <trkpt lat="45.38177" lon="5.8077">
        <ele>1472</ele>
        <time>2022-01-12T13:32:26.552Z</time>
      </trkpt>
      <trkpt lat="45.38185" lon="5.80777">
        <ele>1472</ele>
        <time>2022-01-12T13:32:39.573Z</time>
      </trkpt>
      <trkpt lat="45.38194" lon="5.80781">
        <ele>1471</ele>
        <time>2022-01-12T13:32:50.574Z</time>
      </trkpt>
      <trkpt lat="45.38197" lon="5.80782">
        <ele>1471</ele>
        <time>2022-01-12T13:32:57.573Z</time>
      </trkpt>
      <trkpt lat="45.38197" lon="5.80782">
        <ele>1471</ele>
        <time>2022-01-12T13:33:14.576Z</time>
      </trkpt>
      <trkpt lat="45.38201" lon="5.80782">
        <ele>1471</ele>
        <time>2022-01-12T13:33:15.568Z</time>
      </trkpt>
      <trkpt lat="45.38206" lon="5.80782">
        <ele>1472</ele>
        <time>2022-01-12T13:33:21.566Z</time>
      </trkpt>
      <trkpt lat="45.38206" lon="5.80782">
        <ele>1472</ele>
        <time>2022-01-12T13:33:59.550Z</time>
      </trkpt>
      <trkpt lat="45.38203" lon="5.80786">
        <ele>1476</ele>
        <time>2022-01-12T13:34:00.544Z</time>
      </trkpt>
      <trkpt lat="45.38211" lon="5.80794">
        <ele>1478</ele>
        <time>2022-01-12T13:34:15.562Z</time>
      </trkpt>
      <trkpt lat="45.3821" lon="5.80807">
        <ele>1480</ele>
        <time>2022-01-12T13:34:30.572Z</time>
      </trkpt>
      <trkpt lat="45.38213" lon="5.8082">
        <ele>1481</ele>
        <time>2022-01-12T13:34:41.578Z</time>
      </trkpt>
      <trkpt lat="45.3821" lon="5.80832">
        <ele>1482</ele>
        <time>2022-01-12T13:34:48.575Z</time>
      </trkpt>
      <trkpt lat="45.38209" lon="5.80846">
        <ele>1483</ele>
        <time>2022-01-12T13:34:56.579Z</time>
      </trkpt>
      <trkpt lat="45.3821" lon="5.80859">
        <ele>1486</ele>
        <time>2022-01-12T13:35:12.573Z</time>
      </trkpt>
      <trkpt lat="45.38213" lon="5.80872">
        <ele>1488</ele>
        <time>2022-01-12T13:35:26.552Z</time>
      </trkpt>
      <trkpt lat="45.38214" lon="5.80885">
        <ele>1492</ele>
        <time>2022-01-12T13:35:42.570Z</time>
      </trkpt>
      <trkpt lat="45.38219" lon="5.80896">
        <ele>1495</ele>
        <time>2022-01-12T13:35:59.576Z</time>
      </trkpt>
      <trkpt lat="45.38226" lon="5.80905">
        <ele>1499</ele>
        <time>2022-01-12T13:36:19.537Z</time>
      </trkpt>
      <trkpt lat="45.38218" lon="5.80913">
        <ele>1501</ele>
        <time>2022-01-12T13:36:28.532Z</time>
      </trkpt>
      <trkpt lat="45.3821" lon="5.8092">
        <ele>1503</ele>
        <time>2022-01-12T13:36:36.576Z</time>
      </trkpt>
      <trkpt lat="45.38203" lon="5.8093">
        <ele>1505</ele>
        <time>2022-01-12T13:36:44.569Z</time>
      </trkpt>
      <trkpt lat="45.38196" lon="5.80938">
        <ele>1507</ele>
        <time>2022-01-12T13:36:54.577Z</time>
      </trkpt>
      <trkpt lat="45.38187" lon="5.80941">
        <ele>1512</ele>
        <time>2022-01-12T13:37:09.578Z</time>
      </trkpt>
      <trkpt lat="45.38181" lon="5.80951">
        <ele>1522</ele>
        <time>2022-01-12T13:37:38.568Z</time>
      </trkpt>
      <trkpt lat="45.38185" lon="5.80956">
        <ele>1527</ele>
        <time>2022-01-12T13:37:55.578Z</time>
      </trkpt>
      <trkpt lat="45.38185" lon="5.80956">
        <ele>1527</ele>
        <time>2022-01-12T13:38:02.591Z</time>
      </trkpt>
      <trkpt lat="45.38186" lon="5.80961">
        <ele>1529</ele>
        <time>2022-01-12T13:38:03.624Z</time>
      </trkpt>
      <trkpt lat="45.38182" lon="5.80963">
        <ele>1530</ele>
        <time>2022-01-12T13:38:09.580Z</time>
      </trkpt>
      <trkpt lat="45.38182" lon="5.80963">
        <ele>1530</ele>
        <time>2022-01-12T13:38:23.581Z</time>
      </trkpt>
      <trkpt lat="45.38179" lon="5.80967">
        <ele>1534</ele>
        <time>2022-01-12T13:38:24.567Z</time>
      </trkpt>
      <trkpt lat="45.38175" lon="5.80968">
        <ele>1535</ele>
        <time>2022-01-12T13:38:30.573Z</time>
      </trkpt>
      <trkpt lat="45.38175" lon="5.80968">
        <ele>1535</ele>
        <time>2022-01-12T13:38:33.531Z</time>
      </trkpt>
      <trkpt lat="45.38171" lon="5.8097">
        <ele>1537</ele>
        <time>2022-01-12T13:38:34.538Z</time>
      </trkpt>
      <trkpt lat="45.3817" lon="5.80972">
        <ele>1538</ele>
        <time>2022-01-12T13:38:39.548Z</time>
      </trkpt>
      <trkpt lat="45.3817" lon="5.80972">
        <ele>1538</ele>
        <time>2022-01-12T13:38:50.541Z</time>
      </trkpt>
      <trkpt lat="45.38167" lon="5.80975">
        <ele>1543</ele>
        <time>2022-01-12T13:38:51.576Z</time>
      </trkpt>
      <trkpt lat="45.38173" lon="5.80975">
        <ele>1551</ele>
        <time>2022-01-12T13:39:09.575Z</time>
      </trkpt>
      <trkpt lat="45.38173" lon="5.80975">
        <ele>1551</ele>
        <time>2022-01-12T13:39:13.593Z</time>
      </trkpt>
      <trkpt lat="45.38169" lon="5.80976">
        <ele>1553</ele>
        <time>2022-01-12T13:39:14.590Z</time>
      </trkpt>
      <trkpt lat="45.38161" lon="5.80982">
        <ele>1556</ele>
        <time>2022-01-12T13:39:26.584Z</time>
      </trkpt>
      <trkpt lat="45.38169" lon="5.80989">
        <ele>1559</ele>
        <time>2022-01-12T13:39:52.576Z</time>
      </trkpt>
      <trkpt lat="45.38163" lon="5.80999">
        <ele>1561</ele>
        <time>2022-01-12T13:40:05.573Z</time>
      </trkpt>
      <trkpt lat="45.38157" lon="5.8101">
        <ele>1563</ele>
        <time>2022-01-12T13:40:18.582Z</time>
      </trkpt>
      <trkpt lat="45.38154" lon="5.81022">
        <ele>1568</ele>
        <time>2022-01-12T13:40:48.643Z</time>
      </trkpt>
      <trkpt lat="45.38147" lon="5.81032">
        <ele>1571</ele>
        <time>2022-01-12T13:41:20.564Z</time>
      </trkpt>
      <trkpt lat="45.38141" lon="5.81043">
        <ele>1575</ele>
        <time>2022-01-12T13:41:54.559Z</time>
      </trkpt>
      <trkpt lat="45.38132" lon="5.81046">
        <ele>1577</ele>
        <time>2022-01-12T13:42:10.589Z</time>
      </trkpt>
      <trkpt lat="45.38122" lon="5.81046">
        <ele>1580</ele>
        <time>2022-01-12T13:42:27.577Z</time>
      </trkpt>
      <trkpt lat="45.38121" lon="5.81045">
        <ele>1580</ele>
        <time>2022-01-12T13:42:31.582Z</time>
      </trkpt>
      <trkpt lat="45.38121" lon="5.81045">
        <ele>1580</ele>
        <time>2022-01-12T13:42:43.561Z</time>
      </trkpt>
      <trkpt lat="45.38119" lon="5.81049">
        <ele>1580</ele>
        <time>2022-01-12T13:42:44.565Z</time>
      </trkpt>
      <trkpt lat="45.38127" lon="5.81057">
        <ele>1580</ele>
        <time>2022-01-12T13:43:03.600Z</time>
      </trkpt>
      <trkpt lat="45.38134" lon="5.81064">
        <ele>1581</ele>
        <time>2022-01-12T13:43:20.585Z</time>
      </trkpt>
      <trkpt lat="45.38143" lon="5.8107">
        <ele>1582</ele>
        <time>2022-01-12T13:43:34.577Z</time>
      </trkpt>
      <trkpt lat="45.3815" lon="5.81078">
        <ele>1584</ele>
        <time>2022-01-12T13:43:57.525Z</time>
      </trkpt>
      <trkpt lat="45.38155" lon="5.81082">
        <ele>1586</ele>
        <time>2022-01-12T13:44:10.563Z</time>
      </trkpt>
      <trkpt lat="45.38155" lon="5.81082">
        <ele>1586</ele>
        <time>2022-01-12T13:44:19.589Z</time>
      </trkpt>
      <trkpt lat="45.38151" lon="5.81084">
        <ele>1587</ele>
        <time>2022-01-12T13:44:20.589Z</time>
      </trkpt>
      <trkpt lat="45.3815" lon="5.81097">
        <ele>1589</ele>
        <time>2022-01-12T13:44:36.591Z</time>
      </trkpt>
      <trkpt lat="45.3815" lon="5.811">
        <ele>1591</ele>
        <time>2022-01-12T13:44:46.566Z</time>
      </trkpt>
      <trkpt lat="45.3815" lon="5.811">
        <ele>1591</ele>
        <time>2022-01-12T13:44:53.578Z</time>
      </trkpt>
      <trkpt lat="45.38152" lon="5.81105">
        <ele>1592</ele>
        <time>2022-01-12T13:44:54.575Z</time>
      </trkpt>
      <trkpt lat="45.38158" lon="5.81114">
        <ele>1598</ele>
        <time>2022-01-12T13:45:19.592Z</time>
      </trkpt>
      <trkpt lat="45.38168" lon="5.81114">
        <ele>1604</ele>
        <time>2022-01-12T13:45:36.569Z</time>
      </trkpt>
      <trkpt lat="45.38177" lon="5.81117">
        <ele>1616</ele>
        <time>2022-01-12T13:46:02.560Z</time>
      </trkpt>
      <trkpt lat="45.38186" lon="5.81115">
        <ele>1622</ele>
        <time>2022-01-12T13:46:20.535Z</time>
      </trkpt>
      <trkpt lat="45.38188" lon="5.81115">
        <ele>1625</ele>
        <time>2022-01-12T13:46:32.567Z</time>
      </trkpt>
      <trkpt lat="45.38188" lon="5.81115">
        <ele>1625</ele>
        <time>2022-01-12T13:47:02.545Z</time>
      </trkpt>
      <trkpt lat="45.38192" lon="5.81114">
        <ele>1627</ele>
        <time>2022-01-12T13:47:03.588Z</time>
      </trkpt>
      <trkpt lat="45.38194" lon="5.81113">
        <ele>1627</ele>
        <time>2022-01-12T13:47:11.585Z</time>
      </trkpt>
      <trkpt lat="45.38194" lon="5.81113">
        <ele>1627</ele>
        <time>2022-01-12T13:47:20.571Z</time>
      </trkpt>
      <trkpt lat="45.38192" lon="5.81117">
        <ele>1628</ele>
        <time>2022-01-12T13:47:21.583Z</time>
      </trkpt>
      <trkpt lat="45.38189" lon="5.81119">
        <ele>1629</ele>
        <time>2022-01-12T13:47:31.580Z</time>
      </trkpt>
      <trkpt lat="45.38189" lon="5.81119">
        <ele>1629</ele>
        <time>2022-01-12T13:48:14.566Z</time>
      </trkpt>
      <trkpt lat="45.38193" lon="5.81123">
        <ele>1630</ele>
        <time>2022-01-12T13:48:15.554Z</time>
      </trkpt>
      <trkpt lat="45.38189" lon="5.81134">
        <ele>1632</ele>
        <time>2022-01-12T13:49:00.548Z</time>
      </trkpt>
      <trkpt lat="45.38181" lon="5.81141">
        <ele>1633</ele>
        <time>2022-01-12T13:49:17.543Z</time>
      </trkpt>
      <trkpt lat="45.38174" lon="5.81151">
        <ele>1637</ele>
        <time>2022-01-12T13:49:37.584Z</time>
      </trkpt>
      <trkpt lat="45.38171" lon="5.81163">
        <ele>1639</ele>
        <time>2022-01-12T13:49:54.593Z</time>
      </trkpt>
      <trkpt lat="45.38175" lon="5.81172">
        <ele>1641</ele>
        <time>2022-01-12T13:50:22.579Z</time>
      </trkpt>
      <trkpt lat="45.38175" lon="5.81172">
        <ele>1641</ele>
        <time>2022-01-12T13:50:53.559Z</time>
      </trkpt>
      <trkpt lat="45.38175" lon="5.81165">
        <ele>1645</ele>
        <time>2022-01-12T13:50:54.533Z</time>
      </trkpt>
      <trkpt lat="45.38176" lon="5.81169">
        <ele>1645</ele>
        <time>2022-01-12T13:51:00.505Z</time>
      </trkpt>
      <trkpt lat="45.38176" lon="5.81169">
        <ele>1645</ele>
        <time>2022-01-12T13:51:27.592Z</time>
      </trkpt>
      <trkpt lat="45.38176" lon="5.81176">
        <ele>1644</ele>
        <time>2022-01-12T13:51:28.548Z</time>
      </trkpt>
      <trkpt lat="45.38174" lon="5.81189">
        <ele>1644</ele>
        <time>2022-01-12T13:51:38.561Z</time>
      </trkpt>
      <trkpt lat="45.38169" lon="5.81199">
        <ele>1643</ele>
        <time>2022-01-12T13:51:51.579Z</time>
      </trkpt>
      <trkpt lat="45.38169" lon="5.81199">
        <ele>1643</ele>
        <time>2022-01-12T13:51:53.586Z</time>
      </trkpt>
      <trkpt lat="45.38166" lon="5.81205">
        <ele>1643</ele>
        <time>2022-01-12T13:51:54.530Z</time>
      </trkpt>
      <trkpt lat="45.38161" lon="5.81216">
        <ele>1643</ele>
        <time>2022-01-12T13:52:00.543Z</time>
      </trkpt>
      <trkpt lat="45.38153" lon="5.81225">
        <ele>1643</ele>
        <time>2022-01-12T13:52:09.518Z</time>
      </trkpt>
      <trkpt lat="45.38145" lon="5.81233">
        <ele>1643</ele>
        <time>2022-01-12T13:52:17.564Z</time>
      </trkpt>
      <trkpt lat="45.38134" lon="5.81226">
        <ele>1644</ele>
        <time>2022-01-12T13:52:23.552Z</time>
      </trkpt>
      <trkpt lat="45.38124" lon="5.81219">
        <ele>1645</ele>
        <time>2022-01-12T13:52:27.564Z</time>
      </trkpt>
      <trkpt lat="45.38121" lon="5.81218">
        <ele>1645</ele>
        <time>2022-01-12T13:52:32.531Z</time>
      </trkpt>
      <trkpt lat="45.38121" lon="5.81218">
        <ele>1645</ele>
        <time>2022-01-12T13:52:35.532Z</time>
      </trkpt>
      <trkpt lat="45.38118" lon="5.8122">
        <ele>1646</ele>
        <time>2022-01-12T13:52:36.550Z</time>
      </trkpt>
      <trkpt lat="45.38108" lon="5.8122">
        <ele>1648</ele>
        <time>2022-01-12T13:52:46.537Z</time>
      </trkpt>
      <trkpt lat="45.38098" lon="5.81221">
        <ele>1650</ele>
        <time>2022-01-12T13:52:54.540Z</time>
      </trkpt>
      <trkpt lat="45.38093" lon="5.81215">
        <ele>1652</ele>
        <time>2022-01-12T13:53:03.547Z</time>
      </trkpt>
      <trkpt lat="45.38093" lon="5.81215">
        <ele>1652</ele>
        <time>2022-01-12T13:53:40.540Z</time>
      </trkpt>
      <trkpt lat="45.38088" lon="5.81217">
        <ele>1651</ele>
        <time>2022-01-12T13:53:41.530Z</time>
      </trkpt>
      <trkpt lat="45.38079" lon="5.81211">
        <ele>1651</ele>
        <time>2022-01-12T13:53:49.522Z</time>
      </trkpt>
      <trkpt lat="45.3807" lon="5.81207">
        <ele>1651</ele>
        <time>2022-01-12T13:53:57.525Z</time>
      </trkpt>
      <trkpt lat="45.38062" lon="5.81202">
        <ele>1651</ele>
        <time>2022-01-12T13:54:06.544Z</time>
      </trkpt>
      <trkpt lat="45.38053" lon="5.81201">
        <ele>1652</ele>
        <time>2022-01-12T13:54:13.534Z</time>
      </trkpt>
      <trkpt lat="45.38043" lon="5.81198">
        <ele>1653</ele>
        <time>2022-01-12T13:54:20.542Z</time>
      </trkpt>
      <trkpt lat="45.38033" lon="5.81195">
        <ele>1653</ele>
        <time>2022-01-12T13:54:28.533Z</time>
      </trkpt>
      <trkpt lat="45.38024" lon="5.8119">
        <ele>1654</ele>
        <time>2022-01-12T13:54:36.546Z</time>
      </trkpt>
      <trkpt lat="45.38015" lon="5.81184">
        <ele>1654</ele>
        <time>2022-01-12T13:54:44.536Z</time>
      </trkpt>
      <trkpt lat="45.38007" lon="5.81177">
        <ele>1654</ele>
        <time>2022-01-12T13:54:52.542Z</time>
      </trkpt>
      <trkpt lat="45.37998" lon="5.81171">
        <ele>1654</ele>
        <time>2022-01-12T13:55:01.524Z</time>
      </trkpt>
      <trkpt lat="45.3799" lon="5.81164">
        <ele>1653</ele>
        <time>2022-01-12T13:55:10.547Z</time>
      </trkpt>
      <trkpt lat="45.37982" lon="5.81155">
        <ele>1653</ele>
        <time>2022-01-12T13:55:18.531Z</time>
      </trkpt>
      <trkpt lat="45.37976" lon="5.81145">
        <ele>1653</ele>
        <time>2022-01-12T13:55:25.528Z</time>
      </trkpt>
      <trkpt lat="45.37969" lon="5.81136">
        <ele>1653</ele>
        <time>2022-01-12T13:55:33.544Z</time>
      </trkpt>
      <trkpt lat="45.3796" lon="5.81129">
        <ele>1654</ele>
        <time>2022-01-12T13:55:42.539Z</time>
      </trkpt>
      <trkpt lat="45.3795" lon="5.81129">
        <ele>1655</ele>
        <time>2022-01-12T13:55:50.547Z</time>
      </trkpt>
      <trkpt lat="45.37941" lon="5.81132">
        <ele>1655</ele>
        <time>2022-01-12T13:55:58.560Z</time>
      </trkpt>
      <trkpt lat="45.37931" lon="5.8113">
        <ele>1656</ele>
        <time>2022-01-12T13:56:07.573Z</time>
      </trkpt>
      <trkpt lat="45.37922" lon="5.81131">
        <ele>1657</ele>
        <time>2022-01-12T13:56:15.546Z</time>
      </trkpt>
      <trkpt lat="45.37913" lon="5.81131">
        <ele>1657</ele>
        <time>2022-01-12T13:56:25.551Z</time>
      </trkpt>
      <trkpt lat="45.37903" lon="5.81128">
        <ele>1658</ele>
        <time>2022-01-12T13:56:34.525Z</time>
      </trkpt>
      <trkpt lat="45.37894" lon="5.81127">
        <ele>1660</ele>
        <time>2022-01-12T13:56:44.526Z</time>
      </trkpt>
      <trkpt lat="45.37885" lon="5.81123">
        <ele>1663</ele>
        <time>2022-01-12T13:56:55.558Z</time>
      </trkpt>
      <trkpt lat="45.37882" lon="5.81122">
        <ele>1665</ele>
        <time>2022-01-12T13:57:03.552Z</time>
      </trkpt>
      <trkpt lat="45.37882" lon="5.81122">
        <ele>1665</ele>
        <time>2022-01-12T13:57:13.562Z</time>
      </trkpt>
      <trkpt lat="45.37878" lon="5.81122">
        <ele>1667</ele>
        <time>2022-01-12T13:57:14.544Z</time>
      </trkpt>
      <trkpt lat="45.3787" lon="5.81118">
        <ele>1669</ele>
        <time>2022-01-12T13:57:24.564Z</time>
      </trkpt>
      <trkpt lat="45.37861" lon="5.81116">
        <ele>1672</ele>
        <time>2022-01-12T13:57:37.541Z</time>
      </trkpt>
      <trkpt lat="45.37853" lon="5.81109">
        <ele>1675</ele>
        <time>2022-01-12T13:57:50.579Z</time>
      </trkpt>
      <trkpt lat="45.37845" lon="5.81102">
        <ele>1677</ele>
        <time>2022-01-12T13:57:59.569Z</time>
      </trkpt>
      <trkpt lat="45.37836" lon="5.81095">
        <ele>1679</ele>
        <time>2022-01-12T13:58:09.571Z</time>
      </trkpt>
      <trkpt lat="45.3783" lon="5.8109">
        <ele>1681</ele>
        <time>2022-01-12T13:58:22.603Z</time>
      </trkpt>
      <trkpt lat="45.3783" lon="5.8109">
        <ele>1681</ele>
        <time>2022-01-12T13:58:40.561Z</time>
      </trkpt>
      <trkpt lat="45.37826" lon="5.81093">
        <ele>1681</ele>
        <time>2022-01-12T13:58:41.561Z</time>
      </trkpt>
      <trkpt lat="45.37818" lon="5.81085">
        <ele>1681</ele>
        <time>2022-01-12T13:58:51.561Z</time>
      </trkpt>
      <trkpt lat="45.37811" lon="5.81077">
        <ele>1681</ele>
        <time>2022-01-12T13:59:00.578Z</time>
      </trkpt>
      <trkpt lat="45.37803" lon="5.81069">
        <ele>1683</ele>
        <time>2022-01-12T13:59:14.593Z</time>
      </trkpt>
      <trkpt lat="45.37797" lon="5.81059">
        <ele>1686</ele>
        <time>2022-01-12T13:59:28.601Z</time>
      </trkpt>
      <trkpt lat="45.37789" lon="5.81051">
        <ele>1690</ele>
        <time>2022-01-12T13:59:42.589Z</time>
      </trkpt>
      <trkpt lat="45.3778" lon="5.81046">
        <ele>1692</ele>
        <time>2022-01-12T13:59:55.539Z</time>
      </trkpt>
      <trkpt lat="45.3777" lon="5.81042">
        <ele>1695</ele>
        <time>2022-01-12T14:00:09.578Z</time>
      </trkpt>
      <trkpt lat="45.37762" lon="5.81036">
        <ele>1702</ele>
        <time>2022-01-12T14:00:41.589Z</time>
      </trkpt>
      <trkpt lat="45.37757" lon="5.81024">
        <ele>1705</ele>
        <time>2022-01-12T14:01:05.576Z</time>
      </trkpt>
      <trkpt lat="45.37749" lon="5.81017">
        <ele>1707</ele>
        <time>2022-01-12T14:01:24.578Z</time>
      </trkpt>
      <trkpt lat="45.37741" lon="5.8101">
        <ele>1710</ele>
        <time>2022-01-12T14:01:38.608Z</time>
      </trkpt>
      <trkpt lat="45.37735" lon="5.81">
        <ele>1714</ele>
        <time>2022-01-12T14:01:53.529Z</time>
      </trkpt>
      <trkpt lat="45.37728" lon="5.8099">
        <ele>1716</ele>
        <time>2022-01-12T14:02:05.579Z</time>
      </trkpt>
      <trkpt lat="45.37721" lon="5.80982">
        <ele>1718</ele>
        <time>2022-01-12T14:02:16.518Z</time>
      </trkpt>
      <trkpt lat="45.37712" lon="5.80977">
        <ele>1720</ele>
        <time>2022-01-12T14:02:31.592Z</time>
      </trkpt>
      <trkpt lat="45.37703" lon="5.80973">
        <ele>1722</ele>
        <time>2022-01-12T14:02:46.584Z</time>
      </trkpt>
      <trkpt lat="45.37693" lon="5.80969">
        <ele>1724</ele>
        <time>2022-01-12T14:02:58.530Z</time>
      </trkpt>
      <trkpt lat="45.37685" lon="5.80967">
        <ele>1725</ele>
        <time>2022-01-12T14:03:10.558Z</time>
      </trkpt>
      <trkpt lat="45.3768" lon="5.80956">
        <ele>1727</ele>
        <time>2022-01-12T14:03:28.543Z</time>
      </trkpt>
      <trkpt lat="45.37671" lon="5.80952">
        <ele>1728</ele>
        <time>2022-01-12T14:03:40.547Z</time>
      </trkpt>
      <trkpt lat="45.37663" lon="5.80948">
        <ele>1730</ele>
        <time>2022-01-12T14:03:58.594Z</time>
      </trkpt>
      <trkpt lat="45.37659" lon="5.8096">
        <ele>1732</ele>
        <time>2022-01-12T14:04:15.599Z</time>
      </trkpt>
      <trkpt lat="45.37656" lon="5.80972">
        <ele>1733</ele>
        <time>2022-01-12T14:04:32.556Z</time>
      </trkpt>
      <trkpt lat="45.37647" lon="5.80968">
        <ele>1735</ele>
        <time>2022-01-12T14:04:48.588Z</time>
      </trkpt>
      <trkpt lat="45.3764" lon="5.80959">
        <ele>1737</ele>
        <time>2022-01-12T14:05:00.597Z</time>
      </trkpt>
      <trkpt lat="45.37635" lon="5.80948">
        <ele>1741</ele>
        <time>2022-01-12T14:05:13.554Z</time>
      </trkpt>
      <trkpt lat="45.37632" lon="5.80935">
        <ele>1744</ele>
        <time>2022-01-12T14:05:27.552Z</time>
      </trkpt>
      <trkpt lat="45.37631" lon="5.80922">
        <ele>1747</ele>
        <time>2022-01-12T14:05:41.591Z</time>
      </trkpt>
      <trkpt lat="45.37632" lon="5.80908">
        <ele>1750</ele>
        <time>2022-01-12T14:05:53.586Z</time>
      </trkpt>
      <trkpt lat="45.37629" lon="5.80895">
        <ele>1753</ele>
        <time>2022-01-12T14:06:08.550Z</time>
      </trkpt>
      <trkpt lat="45.3762" lon="5.80896">
        <ele>1756</ele>
        <time>2022-01-12T14:06:22.592Z</time>
      </trkpt>
      <trkpt lat="45.3761" lon="5.80897">
        <ele>1759</ele>
        <time>2022-01-12T14:06:38.549Z</time>
      </trkpt>
      <trkpt lat="45.37608" lon="5.80884">
        <ele>1762</ele>
        <time>2022-01-12T14:06:54.547Z</time>
      </trkpt>
      <trkpt lat="45.37602" lon="5.80874">
        <ele>1765</ele>
        <time>2022-01-12T14:07:07.548Z</time>
      </trkpt>
      <trkpt lat="45.37598" lon="5.80863">
        <ele>1767</ele>
        <time>2022-01-12T14:07:20.563Z</time>
      </trkpt>
      <trkpt lat="45.37588" lon="5.80866">
        <ele>1769</ele>
        <time>2022-01-12T14:07:34.552Z</time>
      </trkpt>
      <trkpt lat="45.3758" lon="5.8087">
        <ele>1771</ele>
        <time>2022-01-12T14:07:44.531Z</time>
      </trkpt>
      <trkpt lat="45.37573" lon="5.8087">
        <ele>1774</ele>
        <time>2022-01-12T14:08:02.556Z</time>
      </trkpt>
      <trkpt lat="45.37573" lon="5.8087">
        <ele>1774</ele>
        <time>2022-01-12T14:08:15.586Z</time>
      </trkpt>
      <trkpt lat="45.37571" lon="5.80864">
        <ele>1776</ele>
        <time>2022-01-12T14:08:16.590Z</time>
      </trkpt>
      <trkpt lat="45.37566" lon="5.80853">
        <ele>1778</ele>
        <time>2022-01-12T14:08:28.565Z</time>
      </trkpt>
      <trkpt lat="45.37563" lon="5.80841">
        <ele>1780</ele>
        <time>2022-01-12T14:08:42.584Z</time>
      </trkpt>
      <trkpt lat="45.37569" lon="5.8083">
        <ele>1782</ele>
        <time>2022-01-12T14:08:55.564Z</time>
      </trkpt>
      <trkpt lat="45.37576" lon="5.80821">
        <ele>1783</ele>
        <time>2022-01-12T14:09:04.605Z</time>
      </trkpt>
      <trkpt lat="45.3758" lon="5.8081">
        <ele>1784</ele>
        <time>2022-01-12T14:09:15.606Z</time>
      </trkpt>
      <trkpt lat="45.37586" lon="5.80799">
        <ele>1786</ele>
        <time>2022-01-12T14:09:26.577Z</time>
      </trkpt>
      <trkpt lat="45.37577" lon="5.80793">
        <ele>1789</ele>
        <time>2022-01-12T14:09:42.543Z</time>
      </trkpt>
      <trkpt lat="45.37568" lon="5.8079">
        <ele>1792</ele>
        <time>2022-01-12T14:09:55.575Z</time>
      </trkpt>
      <trkpt lat="45.3756" lon="5.80784">
        <ele>1794</ele>
        <time>2022-01-12T14:10:08.564Z</time>
      </trkpt>
      <trkpt lat="45.37552" lon="5.80779">
        <ele>1796</ele>
        <time>2022-01-12T14:10:20.572Z</time>
      </trkpt>
      <trkpt lat="45.37543" lon="5.80775">
        <ele>1798</ele>
        <time>2022-01-12T14:10:34.554Z</time>
      </trkpt>
      <trkpt lat="45.37534" lon="5.80774">
        <ele>1799</ele>
        <time>2022-01-12T14:10:47.564Z</time>
      </trkpt>
      <trkpt lat="45.37525" lon="5.80771">
        <ele>1801</ele>
        <time>2022-01-12T14:11:01.561Z</time>
      </trkpt>
      <trkpt lat="45.37516" lon="5.80767">
        <ele>1802</ele>
        <time>2022-01-12T14:11:12.559Z</time>
      </trkpt>
      <trkpt lat="45.37508" lon="5.8076">
        <ele>1804</ele>
        <time>2022-01-12T14:11:24.556Z</time>
      </trkpt>
      <trkpt lat="45.37499" lon="5.80755">
        <ele>1808</ele>
        <time>2022-01-12T14:11:36.601Z</time>
      </trkpt>
      <trkpt lat="45.3749" lon="5.8075">
        <ele>1812</ele>
        <time>2022-01-12T14:11:48.601Z</time>
      </trkpt>
      <trkpt lat="45.37481" lon="5.80744">
        <ele>1816</ele>
        <time>2022-01-12T14:11:59.589Z</time>
      </trkpt>
      <trkpt lat="45.37474" lon="5.80736">
        <ele>1820</ele>
        <time>2022-01-12T14:12:13.551Z</time>
      </trkpt>
      <trkpt lat="45.37465" lon="5.80728">
        <ele>1822</ele>
        <time>2022-01-12T14:12:27.571Z</time>
      </trkpt>
      <trkpt lat="45.37464" lon="5.80728">
        <ele>1823</ele>
        <time>2022-01-12T14:12:32.536Z</time>
      </trkpt>
      <trkpt lat="45.37464" lon="5.80728">
        <ele>1823</ele>
        <time>2022-01-12T14:12:44.540Z</time>
      </trkpt>
      <trkpt lat="45.37461" lon="5.80725">
        <ele>1825</ele>
        <time>2022-01-12T14:12:45.546Z</time>
      </trkpt>
      <trkpt lat="45.37453" lon="5.80717">
        <ele>1827</ele>
        <time>2022-01-12T14:12:58.562Z</time>
      </trkpt>
      <trkpt lat="45.37446" lon="5.80707">
        <ele>1829</ele>
        <time>2022-01-12T14:13:11.552Z</time>
      </trkpt>
      <trkpt lat="45.37439" lon="5.807">
        <ele>1830</ele>
        <time>2022-01-12T14:13:28.562Z</time>
      </trkpt>
      <trkpt lat="45.37431" lon="5.80693">
        <ele>1832</ele>
        <time>2022-01-12T14:13:41.653Z</time>
      </trkpt>
      <trkpt lat="45.37424" lon="5.80684">
        <ele>1834</ele>
        <time>2022-01-12T14:13:55.597Z</time>
      </trkpt>
      <trkpt lat="45.37417" lon="5.80675">
        <ele>1837</ele>
        <time>2022-01-12T14:14:09.614Z</time>
      </trkpt>
      <trkpt lat="45.37411" lon="5.80665">
        <ele>1840</ele>
        <time>2022-01-12T14:14:24.559Z</time>
      </trkpt>
      <trkpt lat="45.37404" lon="5.80657">
        <ele>1843</ele>
        <time>2022-01-12T14:14:37.629Z</time>
      </trkpt>
      <trkpt lat="45.37397" lon="5.80649">
        <ele>1846</ele>
        <time>2022-01-12T14:14:50.613Z</time>
      </trkpt>
      <trkpt lat="45.37391" lon="5.8064">
        <ele>1849</ele>
        <time>2022-01-12T14:15:05.590Z</time>
      </trkpt>
      <trkpt lat="45.37382" lon="5.80633">
        <ele>1852</ele>
        <time>2022-01-12T14:15:21.659Z</time>
      </trkpt>
      <trkpt lat="45.37374" lon="5.80625">
        <ele>1854</ele>
        <time>2022-01-12T14:15:38.626Z</time>
      </trkpt>
      <trkpt lat="45.37366" lon="5.80618">
        <ele>1855</ele>
        <time>2022-01-12T14:15:52.657Z</time>
      </trkpt>
      <trkpt lat="45.37366" lon="5.80618">
        <ele>1856</ele>
        <time>2022-01-12T14:15:57.625Z</time>
      </trkpt>
      <trkpt lat="45.37366" lon="5.80618">
        <ele>1856</ele>
        <time>2022-01-12T14:18:14.592Z</time>
      </trkpt>
      <trkpt lat="45.37363" lon="5.80615">
        <ele>1857</ele>
        <time>2022-01-12T14:18:15.570Z</time>
      </trkpt>
      <trkpt lat="45.37362" lon="5.80616">
        <ele>1857</ele>
        <time>2022-01-12T14:18:20.660Z</time>
      </trkpt>
      <trkpt lat="45.37362" lon="5.80616">
        <ele>1857</ele>
        <time>2022-01-12T14:25:52.582Z</time>
      </trkpt>
      <trkpt lat="45.37364" lon="5.80613">
        <ele>1856</ele>
        <time>2022-01-12T14:25:53.585Z</time>
      </trkpt>
      <trkpt lat="45.37373" lon="5.80622">
        <ele>1854</ele>
        <time>2022-01-12T14:26:03.584Z</time>
      </trkpt>
      <trkpt lat="45.37382" lon="5.80627">
        <ele>1854</ele>
        <time>2022-01-12T14:26:07.559Z</time>
      </trkpt>
      <trkpt lat="45.37394" lon="5.80634">
        <ele>1853</ele>
        <time>2022-01-12T14:26:11.586Z</time>
      </trkpt>
      <trkpt lat="45.37404" lon="5.8064">
        <ele>1852</ele>
        <time>2022-01-12T14:26:14.586Z</time>
      </trkpt>
      <trkpt lat="45.37414" lon="5.80641">
        <ele>1851</ele>
        <time>2022-01-12T14:26:17.579Z</time>
      </trkpt>
      <trkpt lat="45.37424" lon="5.80645">
        <ele>1850</ele>
        <time>2022-01-12T14:26:22.589Z</time>
      </trkpt>
      <trkpt lat="45.37433" lon="5.80648">
        <ele>1848</ele>
        <time>2022-01-12T14:26:28.573Z</time>
      </trkpt>
      <trkpt lat="45.37442" lon="5.80653">
        <ele>1846</ele>
        <time>2022-01-12T14:26:32.591Z</time>
      </trkpt>
      <trkpt lat="45.37454" lon="5.80659">
        <ele>1845</ele>
        <time>2022-01-12T14:26:35.577Z</time>
      </trkpt>
      <trkpt lat="45.37465" lon="5.80662">
        <ele>1844</ele>
        <time>2022-01-12T14:26:38.596Z</time>
      </trkpt>
      <trkpt lat="45.37474" lon="5.80667">
        <ele>1843</ele>
        <time>2022-01-12T14:26:40.609Z</time>
      </trkpt>
      <trkpt lat="45.37482" lon="5.80673">
        <ele>1842</ele>
        <time>2022-01-12T14:26:42.605Z</time>
      </trkpt>
      <trkpt lat="45.37495" lon="5.80682">
        <ele>1841</ele>
        <time>2022-01-12T14:26:45.596Z</time>
      </trkpt>
      <trkpt lat="45.37511" lon="5.80694">
        <ele>1839</ele>
        <time>2022-01-12T14:26:49.595Z</time>
      </trkpt>
      <trkpt lat="45.37526" lon="5.80704">
        <ele>1837</ele>
        <time>2022-01-12T14:26:52.591Z</time>
      </trkpt>
      <trkpt lat="45.37544" lon="5.80713">
        <ele>1833</ele>
        <time>2022-01-12T14:26:58.595Z</time>
      </trkpt>
      <trkpt lat="45.37558" lon="5.80727">
        <ele>1831</ele>
        <time>2022-01-12T14:27:03.600Z</time>
      </trkpt>
      <trkpt lat="45.37575" lon="5.80745">
        <ele>1828</ele>
        <time>2022-01-12T14:27:07.597Z</time>
      </trkpt>
      <trkpt lat="45.37591" lon="5.8075">
        <ele>1825</ele>
        <time>2022-01-12T14:27:11.591Z</time>
      </trkpt>
      <trkpt lat="45.37605" lon="5.80762">
        <ele>1822</ele>
        <time>2022-01-12T14:27:15.556Z</time>
      </trkpt>
      <trkpt lat="45.37618" lon="5.8078">
        <ele>1819</ele>
        <time>2022-01-12T14:27:18.573Z</time>
      </trkpt>
      <trkpt lat="45.37636" lon="5.80793">
        <ele>1816</ele>
        <time>2022-01-12T14:27:21.564Z</time>
      </trkpt>
      <trkpt lat="45.37658" lon="5.80802">
        <ele>1811</ele>
        <time>2022-01-12T14:27:26.560Z</time>
      </trkpt>
      <trkpt lat="45.37668" lon="5.80803">
        <ele>1790</ele>
        <time>2022-01-12T14:27:53.555Z</time>
      </trkpt>
      <trkpt lat="45.37678" lon="5.80805">
        <ele>1785</ele>
        <time>2022-01-12T14:28:04.565Z</time>
      </trkpt>
      <trkpt lat="45.37689" lon="5.80809">
        <ele>1784</ele>
        <time>2022-01-12T14:28:09.589Z</time>
      </trkpt>
      <trkpt lat="45.37701" lon="5.80811">
        <ele>1783</ele>
        <time>2022-01-12T14:28:12.586Z</time>
      </trkpt>
      <trkpt lat="45.3771" lon="5.80815">
        <ele>1781</ele>
        <time>2022-01-12T14:28:21.557Z</time>
      </trkpt>
      <trkpt lat="45.37718" lon="5.80821">
        <ele>1780</ele>
        <time>2022-01-12T14:28:26.576Z</time>
      </trkpt>
      <trkpt lat="45.37726" lon="5.80829">
        <ele>1780</ele>
        <time>2022-01-12T14:28:29.589Z</time>
      </trkpt>
      <trkpt lat="45.37728" lon="5.80845">
        <ele>1777</ele>
        <time>2022-01-12T14:28:37.579Z</time>
      </trkpt>
      <trkpt lat="45.37726" lon="5.80864">
        <ele>1776</ele>
        <time>2022-01-12T14:28:40.618Z</time>
      </trkpt>
      <trkpt lat="45.37721" lon="5.80877">
        <ele>1774</ele>
        <time>2022-01-12T14:28:43.609Z</time>
      </trkpt>
      <trkpt lat="45.37726" lon="5.80889">
        <ele>1772</ele>
        <time>2022-01-12T14:28:46.587Z</time>
      </trkpt>
      <trkpt lat="45.37731" lon="5.80904">
        <ele>1771</ele>
        <time>2022-01-12T14:28:49.588Z</time>
      </trkpt>
      <trkpt lat="45.37737" lon="5.80916">
        <ele>1769</ele>
        <time>2022-01-12T14:28:52.597Z</time>
      </trkpt>
      <trkpt lat="45.37747" lon="5.80933">
        <ele>1767</ele>
        <time>2022-01-12T14:28:55.586Z</time>
      </trkpt>
      <trkpt lat="45.37758" lon="5.80947">
        <ele>1764</ele>
        <time>2022-01-12T14:28:58.554Z</time>
      </trkpt>
      <trkpt lat="45.3777" lon="5.80965">
        <ele>1760</ele>
        <time>2022-01-12T14:29:03.608Z</time>
      </trkpt>
      <trkpt lat="45.37782" lon="5.80972">
        <ele>1753</ele>
        <time>2022-01-12T14:29:11.533Z</time>
      </trkpt>
      <trkpt lat="45.37783" lon="5.80972">
        <ele>1748</ele>
        <time>2022-01-12T14:29:16.535Z</time>
      </trkpt>
      <trkpt lat="45.37783" lon="5.80972">
        <ele>1748</ele>
        <time>2022-01-12T14:29:46.616Z</time>
      </trkpt>
      <trkpt lat="45.37787" lon="5.80971">
        <ele>1731</ele>
        <time>2022-01-12T14:29:47.582Z</time>
      </trkpt>
      <trkpt lat="45.37798" lon="5.80972">
        <ele>1730</ele>
        <time>2022-01-12T14:29:52.592Z</time>
      </trkpt>
      <trkpt lat="45.3781" lon="5.80978">
        <ele>1730</ele>
        <time>2022-01-12T14:29:55.603Z</time>
      </trkpt>
      <trkpt lat="45.3782" lon="5.80983">
        <ele>1729</ele>
        <time>2022-01-12T14:29:57.578Z</time>
      </trkpt>
      <trkpt lat="45.3783" lon="5.80988">
        <ele>1729</ele>
        <time>2022-01-12T14:29:59.582Z</time>
      </trkpt>
      <trkpt lat="45.37839" lon="5.80993">
        <ele>1729</ele>
        <time>2022-01-12T14:30:01.591Z</time>
      </trkpt>
      <trkpt lat="45.37848" lon="5.80997">
        <ele>1728</ele>
        <time>2022-01-12T14:30:03.568Z</time>
      </trkpt>
      <trkpt lat="45.37861" lon="5.81003">
        <ele>1728</ele>
        <time>2022-01-12T14:30:06.602Z</time>
      </trkpt>
      <trkpt lat="45.37865" lon="5.81024">
        <ele>1724</ele>
        <time>2022-01-12T14:30:16.581Z</time>
      </trkpt>
      <trkpt lat="45.37876" lon="5.81038">
        <ele>1721</ele>
        <time>2022-01-12T14:30:22.582Z</time>
      </trkpt>
      <trkpt lat="45.37886" lon="5.81046">
        <ele>1719</ele>
        <time>2022-01-12T14:30:26.578Z</time>
      </trkpt>
      <trkpt lat="45.37895" lon="5.81049">
        <ele>1716</ele>
        <time>2022-01-12T14:30:30.599Z</time>
      </trkpt>
      <trkpt lat="45.37905" lon="5.81052">
        <ele>1713</ele>
        <time>2022-01-12T14:30:34.590Z</time>
      </trkpt>
      <trkpt lat="45.37909" lon="5.81052">
        <ele>1710</ele>
        <time>2022-01-12T14:30:39.586Z</time>
      </trkpt>
      <trkpt lat="45.37909" lon="5.81052">
        <ele>1710</ele>
        <time>2022-01-12T14:31:03.617Z</time>
      </trkpt>
      <trkpt lat="45.37914" lon="5.81054">
        <ele>1696</ele>
        <time>2022-01-12T14:31:04.604Z</time>
      </trkpt>
      <trkpt lat="45.37917" lon="5.81066">
        <ele>1694</ele>
        <time>2022-01-12T14:31:10.598Z</time>
      </trkpt>
      <trkpt lat="45.37926" lon="5.81075">
        <ele>1693</ele>
        <time>2022-01-12T14:31:12.598Z</time>
      </trkpt>
      <trkpt lat="45.37935" lon="5.81084">
        <ele>1692</ele>
        <time>2022-01-12T14:31:14.608Z</time>
      </trkpt>
      <trkpt lat="45.37942" lon="5.81095">
        <ele>1691</ele>
        <time>2022-01-12T14:31:16.594Z</time>
      </trkpt>
      <trkpt lat="45.37951" lon="5.81103">
        <ele>1691</ele>
        <time>2022-01-12T14:31:18.637Z</time>
      </trkpt>
      <trkpt lat="45.37961" lon="5.81114">
        <ele>1690</ele>
        <time>2022-01-12T14:31:20.589Z</time>
      </trkpt>
      <trkpt lat="45.37971" lon="5.81124">
        <ele>1689</ele>
        <time>2022-01-12T14:31:22.576Z</time>
      </trkpt>
      <trkpt lat="45.37984" lon="5.81136">
        <ele>1688</ele>
        <time>2022-01-12T14:31:25.566Z</time>
      </trkpt>
      <trkpt lat="45.38" lon="5.81156">
        <ele>1686</ele>
        <time>2022-01-12T14:31:30.583Z</time>
      </trkpt>
      <trkpt lat="45.38021" lon="5.81176">
        <ele>1683</ele>
        <time>2022-01-12T14:31:35.582Z</time>
      </trkpt>
      <trkpt lat="45.38041" lon="5.81189">
        <ele>1680</ele>
        <time>2022-01-12T14:31:40.602Z</time>
      </trkpt>
      <trkpt lat="45.3806" lon="5.81198">
        <ele>1677</ele>
        <time>2022-01-12T14:31:46.589Z</time>
      </trkpt>
      <trkpt lat="45.38072" lon="5.81203">
        <ele>1671</ele>
        <time>2022-01-12T14:31:55.612Z</time>
      </trkpt>
      <trkpt lat="45.38073" lon="5.81205">
        <ele>1667</ele>
        <time>2022-01-12T14:32:02.589Z</time>
      </trkpt>
      <trkpt lat="45.38073" lon="5.81205">
        <ele>1667</ele>
        <time>2022-01-12T14:32:52.583Z</time>
      </trkpt>
      <trkpt lat="45.38076" lon="5.81193">
        <ele>1655</ele>
        <time>2022-01-12T14:32:53.603Z</time>
      </trkpt>
      <trkpt lat="45.38069" lon="5.81192">
        <ele>1655</ele>
        <time>2022-01-12T14:33:05.625Z</time>
      </trkpt>
      <trkpt lat="45.38069" lon="5.81192">
        <ele>1655</ele>
        <time>2022-01-12T14:33:07.609Z</time>
      </trkpt>
      <trkpt lat="45.38068" lon="5.81198">
        <ele>1654</ele>
        <time>2022-01-12T14:33:08.579Z</time>
      </trkpt>
      <trkpt lat="45.38067" lon="5.812">
        <ele>1654</ele>
        <time>2022-01-12T14:33:13.586Z</time>
      </trkpt>
      <trkpt lat="45.38067" lon="5.812">
        <ele>1654</ele>
        <time>2022-01-12T14:34:32.564Z</time>
      </trkpt>
      <trkpt lat="45.38071" lon="5.81202">
        <ele>1646</ele>
        <time>2022-01-12T14:34:33.566Z</time>
      </trkpt>
      <trkpt lat="45.38072" lon="5.812">
        <ele>1645</ele>
        <time>2022-01-12T14:34:38.586Z</time>
      </trkpt>
      <trkpt lat="45.38072" lon="5.812">
        <ele>1645</ele>
        <time>2022-01-12T14:35:35.568Z</time>
      </trkpt>
      <trkpt lat="45.3807" lon="5.81207">
        <ele>1642</ele>
        <time>2022-01-12T14:35:36.547Z</time>
      </trkpt>
      <trkpt lat="45.3807" lon="5.81206">
        <ele>1642</ele>
        <time>2022-01-12T14:35:41.576Z</time>
      </trkpt>
      <trkpt lat="45.3807" lon="5.81206">
        <ele>1642</ele>
        <time>2022-01-12T14:36:02.554Z</time>
      </trkpt>
      <trkpt lat="45.38066" lon="5.81205">
        <ele>1644</ele>
        <time>2022-01-12T14:36:03.559Z</time>
      </trkpt>
      <trkpt lat="45.38064" lon="5.81207">
        <ele>1644</ele>
        <time>2022-01-12T14:36:08.569Z</time>
      </trkpt>
      <trkpt lat="45.38064" lon="5.81207">
        <ele>1644</ele>
        <time>2022-01-12T14:36:38.593Z</time>
      </trkpt>
      <trkpt lat="45.38067" lon="5.8121">
        <ele>1642</ele>
        <time>2022-01-12T14:36:39.617Z</time>
      </trkpt>
      <trkpt lat="45.38077" lon="5.81211">
        <ele>1642</ele>
        <time>2022-01-12T14:36:47.628Z</time>
      </trkpt>
      <trkpt lat="45.38086" lon="5.81214">
        <ele>1641</ele>
        <time>2022-01-12T14:36:54.604Z</time>
      </trkpt>
      <trkpt lat="45.38092" lon="5.81224">
        <ele>1641</ele>
        <time>2022-01-12T14:37:11.571Z</time>
      </trkpt>
      <trkpt lat="45.38092" lon="5.81224">
        <ele>1641</ele>
        <time>2022-01-12T14:37:19.576Z</time>
      </trkpt>
      <trkpt lat="45.38094" lon="5.81228">
        <ele>1640</ele>
        <time>2022-01-12T14:37:20.580Z</time>
      </trkpt>
      <trkpt lat="45.38103" lon="5.81234">
        <ele>1638</ele>
        <time>2022-01-12T14:37:30.561Z</time>
      </trkpt>
      <trkpt lat="45.38112" lon="5.81238">
        <ele>1636</ele>
        <time>2022-01-12T14:37:40.556Z</time>
      </trkpt>
      <trkpt lat="45.38121" lon="5.81241">
        <ele>1635</ele>
        <time>2022-01-12T14:37:50.554Z</time>
      </trkpt>
      <trkpt lat="45.3813" lon="5.81244">
        <ele>1636</ele>
        <time>2022-01-12T14:38:03.560Z</time>
      </trkpt>
      <trkpt lat="45.38139" lon="5.81248">
        <ele>1639</ele>
        <time>2022-01-12T14:38:14.566Z</time>
      </trkpt>
      <trkpt lat="45.38149" lon="5.8125">
        <ele>1642</ele>
        <time>2022-01-12T14:38:28.555Z</time>
      </trkpt>
      <trkpt lat="45.38158" lon="5.81251">
        <ele>1645</ele>
        <time>2022-01-12T14:38:38.578Z</time>
      </trkpt>
      <trkpt lat="45.38167" lon="5.81253">
        <ele>1648</ele>
        <time>2022-01-12T14:38:50.563Z</time>
      </trkpt>
      <trkpt lat="45.38176" lon="5.81251">
        <ele>1651</ele>
        <time>2022-01-12T14:39:02.575Z</time>
      </trkpt>
      <trkpt lat="45.38186" lon="5.81251">
        <ele>1654</ele>
        <time>2022-01-12T14:39:12.572Z</time>
      </trkpt>
      <trkpt lat="45.38195" lon="5.81253">
        <ele>1658</ele>
        <time>2022-01-12T14:39:23.585Z</time>
      </trkpt>
      <trkpt lat="45.38204" lon="5.81257">
        <ele>1661</ele>
        <time>2022-01-12T14:39:34.557Z</time>
      </trkpt>
      <trkpt lat="45.38211" lon="5.81264">
        <ele>1663</ele>
        <time>2022-01-12T14:39:45.575Z</time>
      </trkpt>
      <trkpt lat="45.3822" lon="5.8127">
        <ele>1665</ele>
        <time>2022-01-12T14:39:56.566Z</time>
      </trkpt>
      <trkpt lat="45.38229" lon="5.8127">
        <ele>1666</ele>
        <time>2022-01-12T14:40:06.565Z</time>
      </trkpt>
      <trkpt lat="45.38238" lon="5.8127">
        <ele>1668</ele>
        <time>2022-01-12T14:40:16.582Z</time>
      </trkpt>
      <trkpt lat="45.38238" lon="5.8127">
        <ele>1669</ele>
        <time>2022-01-12T14:40:19.578Z</time>
      </trkpt>
      <trkpt lat="45.38238" lon="5.8127">
        <ele>1669</ele>
        <time>2022-01-12T14:43:03.626Z</time>
      </trkpt>
      <trkpt lat="45.38242" lon="5.81271">
        <ele>1676</ele>
        <time>2022-01-12T14:43:04.640Z</time>
      </trkpt>
      <trkpt lat="45.38252" lon="5.81269">
        <ele>1677</ele>
        <time>2022-01-12T14:43:12.624Z</time>
      </trkpt>
      <trkpt lat="45.38261" lon="5.81267">
        <ele>1678</ele>
        <time>2022-01-12T14:43:20.583Z</time>
      </trkpt>
      <trkpt lat="45.38271" lon="5.81267">
        <ele>1680</ele>
        <time>2022-01-12T14:43:29.639Z</time>
      </trkpt>
      <trkpt lat="45.3828" lon="5.81266">
        <ele>1682</ele>
        <time>2022-01-12T14:43:39.619Z</time>
      </trkpt>
      <trkpt lat="45.38289" lon="5.81262">
        <ele>1684</ele>
        <time>2022-01-12T14:43:50.599Z</time>
      </trkpt>
      <trkpt lat="45.38298" lon="5.81259">
        <ele>1685</ele>
        <time>2022-01-12T14:43:59.587Z</time>
      </trkpt>
      <trkpt lat="45.38307" lon="5.81258">
        <ele>1686</ele>
        <time>2022-01-12T14:44:08.570Z</time>
      </trkpt>
      <trkpt lat="45.38316" lon="5.81256">
        <ele>1687</ele>
        <time>2022-01-12T14:44:17.589Z</time>
      </trkpt>
      <trkpt lat="45.38325" lon="5.81256">
        <ele>1688</ele>
        <time>2022-01-12T14:44:29.577Z</time>
      </trkpt>
      <trkpt lat="45.38334" lon="5.81255">
        <ele>1690</ele>
        <time>2022-01-12T14:44:45.569Z</time>
      </trkpt>
      <trkpt lat="45.38343" lon="5.81255">
        <ele>1691</ele>
        <time>2022-01-12T14:44:55.585Z</time>
      </trkpt>
      <trkpt lat="45.38353" lon="5.81254">
        <ele>1692</ele>
        <time>2022-01-12T14:45:06.640Z</time>
      </trkpt>
      <trkpt lat="45.38362" lon="5.81253">
        <ele>1694</ele>
        <time>2022-01-12T14:45:15.578Z</time>
      </trkpt>
      <trkpt lat="45.38371" lon="5.81253">
        <ele>1695</ele>
        <time>2022-01-12T14:45:27.628Z</time>
      </trkpt>
      <trkpt lat="45.38381" lon="5.81255">
        <ele>1698</ele>
        <time>2022-01-12T14:45:38.589Z</time>
      </trkpt>
      <trkpt lat="45.3839" lon="5.81256">
        <ele>1701</ele>
        <time>2022-01-12T14:45:48.551Z</time>
      </trkpt>
      <trkpt lat="45.38399" lon="5.81253">
        <ele>1705</ele>
        <time>2022-01-12T14:46:01.616Z</time>
      </trkpt>
      <trkpt lat="45.38409" lon="5.81251">
        <ele>1708</ele>
        <time>2022-01-12T14:46:12.613Z</time>
      </trkpt>
      <trkpt lat="45.38413" lon="5.81239">
        <ele>1716</ele>
        <time>2022-01-12T14:46:39.623Z</time>
      </trkpt>
      <trkpt lat="45.38422" lon="5.81236">
        <ele>1719</ele>
        <time>2022-01-12T14:46:54.624Z</time>
      </trkpt>
      <trkpt lat="45.38431" lon="5.81237">
        <ele>1720</ele>
        <time>2022-01-12T14:47:05.637Z</time>
      </trkpt>
      <trkpt lat="45.38441" lon="5.81235">
        <ele>1722</ele>
        <time>2022-01-12T14:47:17.631Z</time>
      </trkpt>
      <trkpt lat="45.3845" lon="5.81232">
        <ele>1724</ele>
        <time>2022-01-12T14:47:31.639Z</time>
      </trkpt>
      <trkpt lat="45.38459" lon="5.81229">
        <ele>1727</ele>
        <time>2022-01-12T14:47:45.617Z</time>
      </trkpt>
      <trkpt lat="45.38468" lon="5.81229">
        <ele>1730</ele>
        <time>2022-01-12T14:47:59.640Z</time>
      </trkpt>
      <trkpt lat="45.38477" lon="5.81226">
        <ele>1732</ele>
        <time>2022-01-12T14:48:11.640Z</time>
      </trkpt>
      <trkpt lat="45.38484" lon="5.81224">
        <ele>1734</ele>
        <time>2022-01-12T14:48:24.647Z</time>
      </trkpt>
      <trkpt lat="45.38484" lon="5.81224">
        <ele>1734</ele>
        <time>2022-01-12T14:48:39.591Z</time>
      </trkpt>
      <trkpt lat="45.38488" lon="5.81224">
        <ele>1737</ele>
        <time>2022-01-12T14:48:40.593Z</time>
      </trkpt>
      <trkpt lat="45.38496" lon="5.81218">
        <ele>1740</ele>
        <time>2022-01-12T14:48:51.629Z</time>
      </trkpt>
      <trkpt lat="45.38505" lon="5.81215">
        <ele>1742</ele>
        <time>2022-01-12T14:49:02.608Z</time>
      </trkpt>
      <trkpt lat="45.38512" lon="5.81205">
        <ele>1743</ele>
        <time>2022-01-12T14:49:13.658Z</time>
      </trkpt>
      <trkpt lat="45.38516" lon="5.81193">
        <ele>1745</ele>
        <time>2022-01-12T14:49:25.657Z</time>
      </trkpt>
      <trkpt lat="45.38518" lon="5.8118">
        <ele>1748</ele>
        <time>2022-01-12T14:49:38.641Z</time>
      </trkpt>
      <trkpt lat="45.38521" lon="5.81168">
        <ele>1751</ele>
        <time>2022-01-12T14:49:51.634Z</time>
      </trkpt>
      <trkpt lat="45.38522" lon="5.81155">
        <ele>1755</ele>
        <time>2022-01-12T14:50:06.614Z</time>
      </trkpt>
      <trkpt lat="45.38521" lon="5.81141">
        <ele>1757</ele>
        <time>2022-01-12T14:50:19.588Z</time>
      </trkpt>
      <trkpt lat="45.38516" lon="5.81129">
        <ele>1759</ele>
        <time>2022-01-12T14:50:33.584Z</time>
      </trkpt>
      <trkpt lat="45.38507" lon="5.81122">
        <ele>1760</ele>
        <time>2022-01-12T14:50:48.609Z</time>
      </trkpt>
      <trkpt lat="45.38514" lon="5.81114">
        <ele>1764</ele>
        <time>2022-01-12T14:51:15.647Z</time>
      </trkpt>
      <trkpt lat="45.38523" lon="5.81108">
        <ele>1767</ele>
        <time>2022-01-12T14:51:29.678Z</time>
      </trkpt>
      <trkpt lat="45.38531" lon="5.81103">
        <ele>1770</ele>
        <time>2022-01-12T14:51:44.600Z</time>
      </trkpt>
      <trkpt lat="45.3854" lon="5.81098">
        <ele>1772</ele>
        <time>2022-01-12T14:51:59.571Z</time>
      </trkpt>
      <trkpt lat="45.38549" lon="5.81093">
        <ele>1773</ele>
        <time>2022-01-12T14:52:12.622Z</time>
      </trkpt>
      <trkpt lat="45.38558" lon="5.81088">
        <ele>1775</ele>
        <time>2022-01-12T14:52:24.559Z</time>
      </trkpt>
      <trkpt lat="45.38567" lon="5.81083">
        <ele>1778</ele>
        <time>2022-01-12T14:52:38.628Z</time>
      </trkpt>
      <trkpt lat="45.38573" lon="5.8108">
        <ele>1782</ele>
        <time>2022-01-12T14:52:51.628Z</time>
      </trkpt>
      <trkpt lat="45.38573" lon="5.8108">
        <ele>1782</ele>
        <time>2022-01-12T14:53:02.589Z</time>
      </trkpt>
      <trkpt lat="45.38578" lon="5.81078">
        <ele>1785</ele>
        <time>2022-01-12T14:53:03.570Z</time>
      </trkpt>
      <trkpt lat="45.38586" lon="5.81073">
        <ele>1787</ele>
        <time>2022-01-12T14:53:13.576Z</time>
      </trkpt>
      <trkpt lat="45.38596" lon="5.81072">
        <ele>1788</ele>
        <time>2022-01-12T14:53:25.625Z</time>
      </trkpt>
      <trkpt lat="45.38605" lon="5.81067">
        <ele>1788</ele>
        <time>2022-01-12T14:53:34.626Z</time>
      </trkpt>
      <trkpt lat="45.38614" lon="5.81064">
        <ele>1788</ele>
        <time>2022-01-12T14:53:42.612Z</time>
      </trkpt>
      <trkpt lat="45.38623" lon="5.81062">
        <ele>1789</ele>
        <time>2022-01-12T14:53:50.586Z</time>
      </trkpt>
      <trkpt lat="45.38632" lon="5.81058">
        <ele>1790</ele>
        <time>2022-01-12T14:54:12.635Z</time>
      </trkpt>
      <trkpt lat="45.38632" lon="5.81058">
        <ele>1790</ele>
        <time>2022-01-12T14:54:15.624Z</time>
      </trkpt>
      <trkpt lat="45.38632" lon="5.81058">
        <ele>1790</ele>
        <time>2022-01-12T14:55:00.567Z</time>
      </trkpt>
      <trkpt lat="45.38647" lon="5.81034">
        <ele>1788</ele>
        <time>2022-01-12T14:55:01.569Z</time>
      </trkpt>
      <trkpt lat="45.38655" lon="5.81025">
        <ele>1787</ele>
        <time>2022-01-12T14:55:04.605Z</time>
      </trkpt>
      <trkpt lat="45.38664" lon="5.81013">
        <ele>1787</ele>
        <time>2022-01-12T14:55:07.613Z</time>
      </trkpt>
      <trkpt lat="45.3867" lon="5.81001">
        <ele>1786</ele>
        <time>2022-01-12T14:55:10.554Z</time>
      </trkpt>
      <trkpt lat="45.38677" lon="5.8099">
        <ele>1786</ele>
        <time>2022-01-12T14:55:13.580Z</time>
      </trkpt>
      <trkpt lat="45.38684" lon="5.80979">
        <ele>1785</ele>
        <time>2022-01-12T14:55:17.577Z</time>
      </trkpt>
      <trkpt lat="45.38693" lon="5.80967">
        <ele>1783</ele>
        <time>2022-01-12T14:55:22.605Z</time>
      </trkpt>
      <trkpt lat="45.38701" lon="5.80954">
        <ele>1781</ele>
        <time>2022-01-12T14:55:28.569Z</time>
      </trkpt>
      <trkpt lat="45.38707" lon="5.80939">
        <ele>1779</ele>
        <time>2022-01-12T14:55:32.570Z</time>
      </trkpt>
      <trkpt lat="45.3871" lon="5.80922">
        <ele>1778</ele>
        <time>2022-01-12T14:55:35.577Z</time>
      </trkpt>
      <trkpt lat="45.38712" lon="5.80907">
        <ele>1776</ele>
        <time>2022-01-12T14:55:38.591Z</time>
      </trkpt>
      <trkpt lat="45.38714" lon="5.80893">
        <ele>1772</ele>
        <time>2022-01-12T14:55:45.587Z</time>
      </trkpt>
      <trkpt lat="45.38717" lon="5.8088">
        <ele>1768</ele>
        <time>2022-01-12T14:55:52.586Z</time>
      </trkpt>
      <trkpt lat="45.38719" lon="5.80867">
        <ele>1764</ele>
        <time>2022-01-12T14:56:02.588Z</time>
      </trkpt>
      <trkpt lat="45.3872" lon="5.80855">
        <ele>1758</ele>
        <time>2022-01-12T14:56:23.576Z</time>
      </trkpt>
      <trkpt lat="45.3872" lon="5.80855">
        <ele>1758</ele>
        <time>2022-01-12T14:56:34.578Z</time>
      </trkpt>
      <trkpt lat="45.3872" lon="5.80849">
        <ele>1757</ele>
        <time>2022-01-12T14:56:35.616Z</time>
      </trkpt>
      <trkpt lat="45.38719" lon="5.80835">
        <ele>1757</ele>
        <time>2022-01-12T14:56:45.570Z</time>
      </trkpt>
      <trkpt lat="45.38718" lon="5.80822">
        <ele>1757</ele>
        <time>2022-01-12T14:56:56.575Z</time>
      </trkpt>
      <trkpt lat="45.38717" lon="5.80808">
        <ele>1757</ele>
        <time>2022-01-12T14:57:05.588Z</time>
      </trkpt>
      <trkpt lat="45.38717" lon="5.80794">
        <ele>1757</ele>
        <time>2022-01-12T14:57:16.589Z</time>
      </trkpt>
      <trkpt lat="45.38716" lon="5.80781">
        <ele>1759</ele>
        <time>2022-01-12T14:57:27.579Z</time>
      </trkpt>
      <trkpt lat="45.38715" lon="5.80768">
        <ele>1761</ele>
        <time>2022-01-12T14:57:39.577Z</time>
      </trkpt>
      <trkpt lat="45.38715" lon="5.80755">
        <ele>1763</ele>
        <time>2022-01-12T14:57:50.570Z</time>
      </trkpt>
      <trkpt lat="45.38715" lon="5.80741">
        <ele>1765</ele>
        <time>2022-01-12T14:58:05.563Z</time>
      </trkpt>
      <trkpt lat="45.3872" lon="5.80729">
        <ele>1768</ele>
        <time>2022-01-12T14:58:20.587Z</time>
      </trkpt>
      <trkpt lat="45.38726" lon="5.80717">
        <ele>1771</ele>
        <time>2022-01-12T14:58:34.592Z</time>
      </trkpt>
      <trkpt lat="45.3873" lon="5.80706">
        <ele>1773</ele>
        <time>2022-01-12T14:58:50.570Z</time>
      </trkpt>
      <trkpt lat="45.38735" lon="5.80694">
        <ele>1775</ele>
        <time>2022-01-12T14:59:03.583Z</time>
      </trkpt>
      <trkpt lat="45.38741" lon="5.80684">
        <ele>1777</ele>
        <time>2022-01-12T14:59:16.589Z</time>
      </trkpt>
      <trkpt lat="45.38745" lon="5.80672">
        <ele>1780</ele>
        <time>2022-01-12T14:59:34.572Z</time>
      </trkpt>
      <trkpt lat="45.38741" lon="5.80661">
        <ele>1785</ele>
        <time>2022-01-12T15:00:06.595Z</time>
      </trkpt>
      <trkpt lat="45.3874" lon="5.80648">
        <ele>1793</ele>
        <time>2022-01-12T15:00:47.589Z</time>
      </trkpt>
      <trkpt lat="45.38745" lon="5.80637">
        <ele>1796</ele>
        <time>2022-01-12T15:01:03.607Z</time>
      </trkpt>
      <trkpt lat="45.38749" lon="5.80624">
        <ele>1798</ele>
        <time>2022-01-12T15:01:17.636Z</time>
      </trkpt>
      <trkpt lat="45.38751" lon="5.80611">
        <ele>1800</ele>
        <time>2022-01-12T15:01:31.603Z</time>
      </trkpt>
      <trkpt lat="45.3875" lon="5.80598">
        <ele>1803</ele>
        <time>2022-01-12T15:01:42.604Z</time>
      </trkpt>
      <trkpt lat="45.38752" lon="5.80584">
        <ele>1806</ele>
        <time>2022-01-12T15:01:55.592Z</time>
      </trkpt>
      <trkpt lat="45.38755" lon="5.80572">
        <ele>1809</ele>
        <time>2022-01-12T15:02:07.632Z</time>
      </trkpt>
      <trkpt lat="45.38753" lon="5.80559">
        <ele>1810</ele>
        <time>2022-01-12T15:02:20.608Z</time>
      </trkpt>
      <trkpt lat="45.38752" lon="5.80558">
        <ele>1811</ele>
        <time>2022-01-12T15:02:25.612Z</time>
      </trkpt>
      <trkpt lat="45.38752" lon="5.80558">
        <ele>1811</ele>
        <time>2022-01-12T15:06:07.544Z</time>
      </trkpt>
      <trkpt lat="45.38749" lon="5.8056">
        <ele>1811</ele>
        <time>2022-01-12T15:06:08.577Z</time>
      </trkpt>
      <trkpt lat="45.38749" lon="5.8056">
        <ele>1811</ele>
        <time>2022-01-12T15:06:16.655Z</time>
      </trkpt>
      <trkpt lat="45.38749" lon="5.8056">
        <ele>1811</ele>
        <time>2022-01-12T15:06:50.587Z</time>
      </trkpt>
      <trkpt lat="45.38747" lon="5.80564">
        <ele>1812</ele>
        <time>2022-01-12T15:06:51.617Z</time>
      </trkpt>
      <trkpt lat="45.38744" lon="5.80577">
        <ele>1812</ele>
        <time>2022-01-12T15:06:58.650Z</time>
      </trkpt>
      <trkpt lat="45.38741" lon="5.8059">
        <ele>1812</ele>
        <time>2022-01-12T15:07:04.655Z</time>
      </trkpt>
      <trkpt lat="45.38738" lon="5.80603">
        <ele>1813</ele>
        <time>2022-01-12T15:07:15.640Z</time>
      </trkpt>
      <trkpt lat="45.3873" lon="5.80611">
        <ele>1814</ele>
        <time>2022-01-12T15:07:28.654Z</time>
      </trkpt>
      <trkpt lat="45.38729" lon="5.80613">
        <ele>1814</ele>
        <time>2022-01-12T15:07:33.653Z</time>
      </trkpt>
      <trkpt lat="45.38729" lon="5.80613">
        <ele>1814</ele>
        <time>2022-01-12T15:09:18.699Z</time>
      </trkpt>
      <trkpt lat="45.38733" lon="5.8061">
        <ele>1815</ele>
        <time>2022-01-12T15:09:19.675Z</time>
      </trkpt>
      <trkpt lat="45.38734" lon="5.80608">
        <ele>1816</ele>
        <time>2022-01-12T15:09:26.658Z</time>
      </trkpt>
      <trkpt lat="45.38734" lon="5.80608">
        <ele>1816</ele>
        <time>2022-01-12T15:12:24.666Z</time>
      </trkpt>
      <trkpt lat="45.38731" lon="5.80613">
        <ele>1813</ele>
        <time>2022-01-12T15:12:25.625Z</time>
      </trkpt>
      <trkpt lat="45.38733" lon="5.80612">
        <ele>1813</ele>
        <time>2022-01-12T15:12:31.656Z</time>
      </trkpt>
      <trkpt lat="45.38733" lon="5.80612">
        <ele>1813</ele>
        <time>2022-01-12T15:12:39.626Z</time>
      </trkpt>
      <trkpt lat="45.38722" lon="5.80623">
        <ele>1813</ele>
        <time>2022-01-12T15:12:40.630Z</time>
      </trkpt>
      <trkpt lat="45.38713" lon="5.80628">
        <ele>1813</ele>
        <time>2022-01-12T15:12:42.601Z</time>
      </trkpt>
      <trkpt lat="45.38701" lon="5.80632">
        <ele>1812</ele>
        <time>2022-01-12T15:12:44.600Z</time>
      </trkpt>
      <trkpt lat="45.38692" lon="5.80629">
        <ele>1812</ele>
        <time>2022-01-12T15:12:46.607Z</time>
      </trkpt>
      <trkpt lat="45.38687" lon="5.80628">
        <ele>1811</ele>
        <time>2022-01-12T15:12:53.616Z</time>
      </trkpt>
      <trkpt lat="45.38687" lon="5.80628">
        <ele>1811</ele>
        <time>2022-01-12T15:12:59.650Z</time>
      </trkpt>
      <trkpt lat="45.38684" lon="5.80631">
        <ele>1810</ele>
        <time>2022-01-12T15:13:00.623Z</time>
      </trkpt>
      <trkpt lat="45.38676" lon="5.80636">
        <ele>1809</ele>
        <time>2022-01-12T15:13:04.654Z</time>
      </trkpt>
      <trkpt lat="45.38678" lon="5.8065">
        <ele>1808</ele>
        <time>2022-01-12T15:13:08.644Z</time>
      </trkpt>
      <trkpt lat="45.38669" lon="5.80663">
        <ele>1806</ele>
        <time>2022-01-12T15:13:12.626Z</time>
      </trkpt>
      <trkpt lat="45.38662" lon="5.80671">
        <ele>1804</ele>
        <time>2022-01-12T15:13:15.621Z</time>
      </trkpt>
      <trkpt lat="45.38652" lon="5.80675">
        <ele>1800</ele>
        <time>2022-01-12T15:13:19.665Z</time>
      </trkpt>
      <trkpt lat="45.38642" lon="5.80675">
        <ele>1792</ele>
        <time>2022-01-12T15:13:26.641Z</time>
      </trkpt>
      <trkpt lat="45.38633" lon="5.80679">
        <ele>1785</ele>
        <time>2022-01-12T15:13:33.618Z</time>
      </trkpt>
      <trkpt lat="45.38626" lon="5.80689">
        <ele>1779</ele>
        <time>2022-01-12T15:13:39.655Z</time>
      </trkpt>
      <trkpt lat="45.38621" lon="5.80694">
        <ele>1772</ele>
        <time>2022-01-12T15:13:45.636Z</time>
      </trkpt>
      <trkpt lat="45.38621" lon="5.80694">
        <ele>1772</ele>
        <time>2022-01-12T15:13:49.607Z</time>
      </trkpt>
      <trkpt lat="45.38622" lon="5.80701">
        <ele>1766</ele>
        <time>2022-01-12T15:13:50.620Z</time>
      </trkpt>
      <trkpt lat="45.38621" lon="5.80715">
        <ele>1761</ele>
        <time>2022-01-12T15:13:54.627Z</time>
      </trkpt>
      <trkpt lat="45.38608" lon="5.80724">
        <ele>1757</ele>
        <time>2022-01-12T15:13:58.629Z</time>
      </trkpt>
      <trkpt lat="45.38599" lon="5.80732">
        <ele>1754</ele>
        <time>2022-01-12T15:14:02.556Z</time>
      </trkpt>
      <trkpt lat="45.38595" lon="5.80748">
        <ele>1751</ele>
        <time>2022-01-12T15:14:05.588Z</time>
      </trkpt>
      <trkpt lat="45.3859" lon="5.80758">
        <ele>1749</ele>
        <time>2022-01-12T15:14:08.629Z</time>
      </trkpt>
      <trkpt lat="45.38583" lon="5.80774">
        <ele>1746</ele>
        <time>2022-01-12T15:14:11.638Z</time>
      </trkpt>
      <trkpt lat="45.3858" lon="5.8078">
        <ele>1739</ele>
        <time>2022-01-12T15:14:19.628Z</time>
      </trkpt>
      <trkpt lat="45.3858" lon="5.8078">
        <ele>1739</ele>
        <time>2022-01-12T15:14:33.633Z</time>
      </trkpt>
      <trkpt lat="45.38577" lon="5.80781">
        <ele>1728</ele>
        <time>2022-01-12T15:14:34.622Z</time>
      </trkpt>
      <trkpt lat="45.38567" lon="5.80788">
        <ele>1726</ele>
        <time>2022-01-12T15:14:37.619Z</time>
      </trkpt>
      <trkpt lat="45.38557" lon="5.80795">
        <ele>1724</ele>
        <time>2022-01-12T15:14:40.639Z</time>
      </trkpt>
      <trkpt lat="45.3855" lon="5.80787">
        <ele>1721</ele>
        <time>2022-01-12T15:14:45.616Z</time>
      </trkpt>
      <trkpt lat="45.38539" lon="5.80781">
        <ele>1719</ele>
        <time>2022-01-12T15:14:48.636Z</time>
      </trkpt>
      <trkpt lat="45.38529" lon="5.80775">
        <ele>1717</ele>
        <time>2022-01-12T15:14:52.559Z</time>
      </trkpt>
      <trkpt lat="45.38519" lon="5.80767">
        <ele>1716</ele>
        <time>2022-01-12T15:14:55.558Z</time>
      </trkpt>
      <trkpt lat="45.3851" lon="5.80756">
        <ele>1715</ele>
        <time>2022-01-12T15:14:58.629Z</time>
      </trkpt>
      <trkpt lat="45.38507" lon="5.80751">
        <ele>1711</ele>
        <time>2022-01-12T15:15:05.549Z</time>
      </trkpt>
      <trkpt lat="45.38507" lon="5.80751">
        <ele>1711</ele>
        <time>2022-01-12T15:15:12.539Z</time>
      </trkpt>
      <trkpt lat="45.38503" lon="5.80753">
        <ele>1707</ele>
        <time>2022-01-12T15:15:13.522Z</time>
      </trkpt>
      <trkpt lat="45.38497" lon="5.80763">
        <ele>1705</ele>
        <time>2022-01-12T15:15:17.541Z</time>
      </trkpt>
      <trkpt lat="45.38486" lon="5.80763">
        <ele>1702</ele>
        <time>2022-01-12T15:15:21.553Z</time>
      </trkpt>
      <trkpt lat="45.3847" lon="5.80761">
        <ele>1701</ele>
        <time>2022-01-12T15:15:23.598Z</time>
      </trkpt>
      <trkpt lat="45.38458" lon="5.80756">
        <ele>1700</ele>
        <time>2022-01-12T15:15:25.605Z</time>
      </trkpt>
      <trkpt lat="45.3845" lon="5.80762">
        <ele>1699</ele>
        <time>2022-01-12T15:15:27.636Z</time>
      </trkpt>
      <trkpt lat="45.38439" lon="5.80759">
        <ele>1697</ele>
        <time>2022-01-12T15:15:29.593Z</time>
      </trkpt>
      <trkpt lat="45.38436" lon="5.80754">
        <ele>1690</ele>
        <time>2022-01-12T15:15:40.622Z</time>
      </trkpt>
      <trkpt lat="45.38436" lon="5.80754">
        <ele>1690</ele>
        <time>2022-01-12T15:15:44.563Z</time>
      </trkpt>
      <trkpt lat="45.38432" lon="5.80759">
        <ele>1687</ele>
        <time>2022-01-12T15:15:45.543Z</time>
      </trkpt>
      <trkpt lat="45.38431" lon="5.80776">
        <ele>1685</ele>
        <time>2022-01-12T15:15:48.555Z</time>
      </trkpt>
      <trkpt lat="45.38421" lon="5.8078">
        <ele>1684</ele>
        <time>2022-01-12T15:15:50.545Z</time>
      </trkpt>
      <trkpt lat="45.38411" lon="5.80783">
        <ele>1682</ele>
        <time>2022-01-12T15:15:53.614Z</time>
      </trkpt>
      <trkpt lat="45.38398" lon="5.80785">
        <ele>1679</ele>
        <time>2022-01-12T15:15:58.609Z</time>
      </trkpt>
      <trkpt lat="45.38386" lon="5.80786">
        <ele>1677</ele>
        <time>2022-01-12T15:16:01.593Z</time>
      </trkpt>
      <trkpt lat="45.38375" lon="5.8078">
        <ele>1674</ele>
        <time>2022-01-12T15:16:05.597Z</time>
      </trkpt>
      <trkpt lat="45.38364" lon="5.80765">
        <ele>1671</ele>
        <time>2022-01-12T15:16:10.597Z</time>
      </trkpt>
      <trkpt lat="45.3835" lon="5.80766">
        <ele>1669</ele>
        <time>2022-01-12T15:16:14.591Z</time>
      </trkpt>
      <trkpt lat="45.38346" lon="5.80771">
        <ele>1664</ele>
        <time>2022-01-12T15:16:22.568Z</time>
      </trkpt>
      <trkpt lat="45.38346" lon="5.80771">
        <ele>1664</ele>
        <time>2022-01-12T15:16:41.605Z</time>
      </trkpt>
      <trkpt lat="45.38339" lon="5.80769">
        <ele>1654</ele>
        <time>2022-01-12T15:16:42.578Z</time>
      </trkpt>
      <trkpt lat="45.38332" lon="5.80758">
        <ele>1650</ele>
        <time>2022-01-12T15:16:50.631Z</time>
      </trkpt>
      <trkpt lat="45.38323" lon="5.80755">
        <ele>1646</ele>
        <time>2022-01-12T15:16:59.558Z</time>
      </trkpt>
      <trkpt lat="45.38312" lon="5.8075">
        <ele>1641</ele>
        <time>2022-01-12T15:17:10.575Z</time>
      </trkpt>
      <trkpt lat="45.38302" lon="5.80746">
        <ele>1637</ele>
        <time>2022-01-12T15:17:19.589Z</time>
      </trkpt>
      <trkpt lat="45.38292" lon="5.80752">
        <ele>1633</ele>
        <time>2022-01-12T15:17:27.538Z</time>
      </trkpt>
      <trkpt lat="45.38283" lon="5.80757">
        <ele>1623</ele>
        <time>2022-01-12T15:17:49.571Z</time>
      </trkpt>
      <trkpt lat="45.38273" lon="5.80754">
        <ele>1614</ele>
        <time>2022-01-12T15:18:09.591Z</time>
      </trkpt>
      <trkpt lat="45.38264" lon="5.80754">
        <ele>1611</ele>
        <time>2022-01-12T15:18:16.592Z</time>
      </trkpt>
      <trkpt lat="45.38254" lon="5.80752">
        <ele>1610</ele>
        <time>2022-01-12T15:18:20.572Z</time>
      </trkpt>
      <trkpt lat="45.38253" lon="5.80752">
        <ele>1608</ele>
        <time>2022-01-12T15:18:24.563Z</time>
      </trkpt>
      <trkpt lat="45.38253" lon="5.80752">
        <ele>1608</ele>
        <time>2022-01-12T15:18:32.563Z</time>
      </trkpt>
      <trkpt lat="45.3825" lon="5.80755">
        <ele>1604</ele>
        <time>2022-01-12T15:18:33.580Z</time>
      </trkpt>
      <trkpt lat="45.38244" lon="5.80766">
        <ele>1603</ele>
        <time>2022-01-12T15:18:37.560Z</time>
      </trkpt>
      <trkpt lat="45.38246" lon="5.80773">
        <ele>1601</ele>
        <time>2022-01-12T15:18:42.544Z</time>
      </trkpt>
      <trkpt lat="45.38246" lon="5.80773">
        <ele>1601</ele>
        <time>2022-01-12T15:18:48.547Z</time>
      </trkpt>
      <trkpt lat="45.38244" lon="5.8078">
        <ele>1598</ele>
        <time>2022-01-12T15:18:49.531Z</time>
      </trkpt>
      <trkpt lat="45.38233" lon="5.80782">
        <ele>1595</ele>
        <time>2022-01-12T15:18:56.558Z</time>
      </trkpt>
      <trkpt lat="45.38223" lon="5.80785">
        <ele>1592</ele>
        <time>2022-01-12T15:19:01.569Z</time>
      </trkpt>
      <trkpt lat="45.38213" lon="5.80784">
        <ele>1591</ele>
        <time>2022-01-12T15:19:04.543Z</time>
      </trkpt>
      <trkpt lat="45.38202" lon="5.80785">
        <ele>1588</ele>
        <time>2022-01-12T15:19:09.568Z</time>
      </trkpt>
      <trkpt lat="45.38192" lon="5.80791">
        <ele>1587</ele>
        <time>2022-01-12T15:19:12.559Z</time>
      </trkpt>
      <trkpt lat="45.38186" lon="5.80799">
        <ele>1583</ele>
        <time>2022-01-12T15:19:19.554Z</time>
      </trkpt>
      <trkpt lat="45.38186" lon="5.80799">
        <ele>1583</ele>
        <time>2022-01-12T15:19:26.553Z</time>
      </trkpt>
      <trkpt lat="45.38183" lon="5.80794">
        <ele>1577</ele>
        <time>2022-01-12T15:19:27.545Z</time>
      </trkpt>
      <trkpt lat="45.38177" lon="5.80782">
        <ele>1574</ele>
        <time>2022-01-12T15:19:31.545Z</time>
      </trkpt>
      <trkpt lat="45.38178" lon="5.80765">
        <ele>1572</ele>
        <time>2022-01-12T15:19:35.565Z</time>
      </trkpt>
      <trkpt lat="45.38176" lon="5.8075">
        <ele>1569</ele>
        <time>2022-01-12T15:19:39.555Z</time>
      </trkpt>
      <trkpt lat="45.38165" lon="5.80743">
        <ele>1565</ele>
        <time>2022-01-12T15:19:43.544Z</time>
      </trkpt>
      <trkpt lat="45.38157" lon="5.80735">
        <ele>1563</ele>
        <time>2022-01-12T15:19:46.545Z</time>
      </trkpt>
      <trkpt lat="45.38149" lon="5.80727">
        <ele>1561</ele>
        <time>2022-01-12T15:19:49.538Z</time>
      </trkpt>
      <trkpt lat="45.3814" lon="5.80713">
        <ele>1558</ele>
        <time>2022-01-12T15:19:52.570Z</time>
      </trkpt>
      <trkpt lat="45.3813" lon="5.80697">
        <ele>1556</ele>
        <time>2022-01-12T15:19:55.551Z</time>
      </trkpt>
      <trkpt lat="45.38115" lon="5.80684">
        <ele>1551</ele>
        <time>2022-01-12T15:20:00.548Z</time>
      </trkpt>
      <trkpt lat="45.38105" lon="5.80679">
        <ele>1540</ele>
        <time>2022-01-12T15:20:11.545Z</time>
      </trkpt>
      <trkpt lat="45.38096" lon="5.80675">
        <ele>1533</ele>
        <time>2022-01-12T15:20:18.567Z</time>
      </trkpt>
      <trkpt lat="45.38094" lon="5.80676">
        <ele>1527</ele>
        <time>2022-01-12T15:20:24.541Z</time>
      </trkpt>
      <trkpt lat="45.38094" lon="5.80676">
        <ele>1527</ele>
        <time>2022-01-12T15:20:27.534Z</time>
      </trkpt>
      <trkpt lat="45.38088" lon="5.80677">
        <ele>1523</ele>
        <time>2022-01-12T15:20:28.540Z</time>
      </trkpt>
      <trkpt lat="45.38082" lon="5.80674">
        <ele>1517</ele>
        <time>2022-01-12T15:20:34.544Z</time>
      </trkpt>
      <trkpt lat="45.38082" lon="5.80674">
        <ele>1517</ele>
        <time>2022-01-12T15:20:41.557Z</time>
      </trkpt>
      <trkpt lat="45.38079" lon="5.8067">
        <ele>1510</ele>
        <time>2022-01-12T15:20:42.555Z</time>
      </trkpt>
      <trkpt lat="45.38071" lon="5.80663">
        <ele>1504</ele>
        <time>2022-01-12T15:20:49.555Z</time>
      </trkpt>
      <trkpt lat="45.38064" lon="5.80653">
        <ele>1500</ele>
        <time>2022-01-12T15:20:56.565Z</time>
      </trkpt>
      <trkpt lat="45.38059" lon="5.8064">
        <ele>1495</ele>
        <time>2022-01-12T15:21:05.538Z</time>
      </trkpt>
      <trkpt lat="45.38054" lon="5.80628">
        <ele>1493</ele>
        <time>2022-01-12T15:21:09.560Z</time>
      </trkpt>
      <trkpt lat="45.38056" lon="5.80627">
        <ele>1489</ele>
        <time>2022-01-12T15:21:14.549Z</time>
      </trkpt>
      <trkpt lat="45.38056" lon="5.80627">
        <ele>1489</ele>
        <time>2022-01-12T15:21:16.565Z</time>
      </trkpt>
      <trkpt lat="45.38058" lon="5.80622">
        <ele>1487</ele>
        <time>2022-01-12T15:21:17.559Z</time>
      </trkpt>
      <trkpt lat="45.38058" lon="5.80609">
        <ele>1481</ele>
        <time>2022-01-12T15:21:28.542Z</time>
      </trkpt>
      <trkpt lat="45.38059" lon="5.80609">
        <ele>1478</ele>
        <time>2022-01-12T15:21:33.524Z</time>
      </trkpt>
      <trkpt lat="45.38059" lon="5.80609">
        <ele>1478</ele>
        <time>2022-01-12T15:21:38.559Z</time>
      </trkpt>
      <trkpt lat="45.38061" lon="5.806">
        <ele>1475</ele>
        <time>2022-01-12T15:21:39.571Z</time>
      </trkpt>
      <trkpt lat="45.38065" lon="5.80585">
        <ele>1473</ele>
        <time>2022-01-12T15:21:41.567Z</time>
      </trkpt>
      <trkpt lat="45.38071" lon="5.80573">
        <ele>1472</ele>
        <time>2022-01-12T15:21:43.584Z</time>
      </trkpt>
      <trkpt lat="45.38078" lon="5.80563">
        <ele>1471</ele>
        <time>2022-01-12T15:21:45.565Z</time>
      </trkpt>
      <trkpt lat="45.38084" lon="5.80548">
        <ele>1470</ele>
        <time>2022-01-12T15:21:47.575Z</time>
      </trkpt>
      <trkpt lat="45.38091" lon="5.80535">
        <ele>1468</ele>
        <time>2022-01-12T15:21:49.560Z</time>
      </trkpt>
      <trkpt lat="45.38097" lon="5.80517">
        <ele>1467</ele>
        <time>2022-01-12T15:21:51.584Z</time>
      </trkpt>
      <trkpt lat="45.38103" lon="5.805">
        <ele>1466</ele>
        <time>2022-01-12T15:21:53.565Z</time>
      </trkpt>
      <trkpt lat="45.38116" lon="5.80476">
        <ele>1463</ele>
        <time>2022-01-12T15:21:57.560Z</time>
      </trkpt>
      <trkpt lat="45.38136" lon="5.80458">
        <ele>1459</ele>
        <time>2022-01-12T15:22:03.572Z</time>
      </trkpt>
      <trkpt lat="45.38154" lon="5.80448">
        <ele>1453</ele>
        <time>2022-01-12T15:22:11.583Z</time>
      </trkpt>
      <trkpt lat="45.38165" lon="5.80441">
        <ele>1448</ele>
        <time>2022-01-12T15:22:19.558Z</time>
      </trkpt>
      <trkpt lat="45.38173" lon="5.80434">
        <ele>1446</ele>
        <time>2022-01-12T15:22:22.576Z</time>
      </trkpt>
      <trkpt lat="45.38176" lon="5.80433">
        <ele>1444</ele>
        <time>2022-01-12T15:22:25.579Z</time>
      </trkpt>
      <trkpt lat="45.38176" lon="5.80433">
        <ele>1444</ele>
        <time>2022-01-12T15:22:34.580Z</time>
      </trkpt>
      <trkpt lat="45.38182" lon="5.80409">
        <ele>1438</ele>
        <time>2022-01-12T15:22:35.592Z</time>
      </trkpt>
      <trkpt lat="45.38182" lon="5.80392">
        <ele>1437</ele>
        <time>2022-01-12T15:22:38.581Z</time>
      </trkpt>
      <trkpt lat="45.38186" lon="5.80379">
        <ele>1435</ele>
        <time>2022-01-12T15:22:41.564Z</time>
      </trkpt>
      <trkpt lat="45.38193" lon="5.80368">
        <ele>1434</ele>
        <time>2022-01-12T15:22:43.557Z</time>
      </trkpt>
      <trkpt lat="45.38201" lon="5.80357">
        <ele>1433</ele>
        <time>2022-01-12T15:22:45.569Z</time>
      </trkpt>
      <trkpt lat="45.38205" lon="5.8035">
        <ele>1430</ele>
        <time>2022-01-12T15:22:51.568Z</time>
      </trkpt>
      <trkpt lat="45.38205" lon="5.8035">
        <ele>1430</ele>
        <time>2022-01-12T15:23:18.556Z</time>
      </trkpt>
      <trkpt lat="45.38206" lon="5.80342">
        <ele>1419</ele>
        <time>2022-01-12T15:23:19.551Z</time>
      </trkpt>
      <trkpt lat="45.38206" lon="5.80326">
        <ele>1418</ele>
        <time>2022-01-12T15:23:22.596Z</time>
      </trkpt>
      <trkpt lat="45.38204" lon="5.80309">
        <ele>1417</ele>
        <time>2022-01-12T15:23:25.582Z</time>
      </trkpt>
      <trkpt lat="45.38204" lon="5.80295">
        <ele>1416</ele>
        <time>2022-01-12T15:23:29.539Z</time>
      </trkpt>
      <trkpt lat="45.38205" lon="5.8028">
        <ele>1415</ele>
        <time>2022-01-12T15:23:31.593Z</time>
      </trkpt>
      <trkpt lat="45.38206" lon="5.80267">
        <ele>1415</ele>
        <time>2022-01-12T15:23:33.571Z</time>
      </trkpt>
      <trkpt lat="45.38209" lon="5.80251">
        <ele>1414</ele>
        <time>2022-01-12T15:23:35.594Z</time>
      </trkpt>
      <trkpt lat="45.38215" lon="5.80234">
        <ele>1413</ele>
        <time>2022-01-12T15:23:38.573Z</time>
      </trkpt>
      <trkpt lat="45.38198" lon="5.80241">
        <ele>1409</ele>
        <time>2022-01-12T15:23:48.592Z</time>
      </trkpt>
      <trkpt lat="45.38183" lon="5.80258">
        <ele>1406</ele>
        <time>2022-01-12T15:23:55.575Z</time>
      </trkpt>
      <trkpt lat="45.3817" lon="5.80276">
        <ele>1404</ele>
        <time>2022-01-12T15:23:59.612Z</time>
      </trkpt>
      <trkpt lat="45.38154" lon="5.80288">
        <ele>1402</ele>
        <time>2022-01-12T15:24:03.612Z</time>
      </trkpt>
      <trkpt lat="45.38139" lon="5.80298">
        <ele>1400</ele>
        <time>2022-01-12T15:24:07.597Z</time>
      </trkpt>
      <trkpt lat="45.3812" lon="5.80303">
        <ele>1398</ele>
        <time>2022-01-12T15:24:10.583Z</time>
      </trkpt>
      <trkpt lat="45.38105" lon="5.80302">
        <ele>1394</ele>
        <time>2022-01-12T15:24:18.620Z</time>
      </trkpt>
      <trkpt lat="45.38105" lon="5.80302">
        <ele>1394</ele>
        <time>2022-01-12T15:24:20.591Z</time>
      </trkpt>
      <trkpt lat="45.38108" lon="5.80297">
        <ele>1392</ele>
        <time>2022-01-12T15:24:21.604Z</time>
      </trkpt>
      <trkpt lat="45.38101" lon="5.80281">
        <ele>1390</ele>
        <time>2022-01-12T15:24:25.614Z</time>
      </trkpt>
      <trkpt lat="45.38092" lon="5.80269">
        <ele>1388</ele>
        <time>2022-01-12T15:24:29.604Z</time>
      </trkpt>
      <trkpt lat="45.38092" lon="5.80251">
        <ele>1386</ele>
        <time>2022-01-12T15:24:32.610Z</time>
      </trkpt>
      <trkpt lat="45.38097" lon="5.80239">
        <ele>1384</ele>
        <time>2022-01-12T15:24:35.595Z</time>
      </trkpt>
      <trkpt lat="45.38097" lon="5.80225">
        <ele>1382</ele>
        <time>2022-01-12T15:24:38.596Z</time>
      </trkpt>
      <trkpt lat="45.38097" lon="5.80205">
        <ele>1379</ele>
        <time>2022-01-12T15:24:42.648Z</time>
      </trkpt>
      <trkpt lat="45.38087" lon="5.80192">
        <ele>1375</ele>
        <time>2022-01-12T15:24:49.608Z</time>
      </trkpt>
      <trkpt lat="45.38075" lon="5.80188">
        <ele>1372</ele>
        <time>2022-01-12T15:24:53.607Z</time>
      </trkpt>
      <trkpt lat="45.38061" lon="5.80182">
        <ele>1369</ele>
        <time>2022-01-12T15:24:56.607Z</time>
      </trkpt>
      <trkpt lat="45.38051" lon="5.80173">
        <ele>1368</ele>
        <time>2022-01-12T15:24:58.598Z</time>
      </trkpt>
      <trkpt lat="45.3804" lon="5.80159">
        <ele>1365</ele>
        <time>2022-01-12T15:25:01.552Z</time>
      </trkpt>
      <trkpt lat="45.38028" lon="5.80151">
        <ele>1360</ele>
        <time>2022-01-12T15:25:08.612Z</time>
      </trkpt>
      <trkpt lat="45.38018" lon="5.80143">
        <ele>1355</ele>
        <time>2022-01-12T15:25:15.593Z</time>
      </trkpt>
      <trkpt lat="45.38008" lon="5.80135">
        <ele>1353</ele>
        <time>2022-01-12T15:25:18.592Z</time>
      </trkpt>
      <trkpt lat="45.37999" lon="5.80122">
        <ele>1351</ele>
        <time>2022-01-12T15:25:21.582Z</time>
      </trkpt>
      <trkpt lat="45.3799" lon="5.80109">
        <ele>1349</ele>
        <time>2022-01-12T15:25:24.642Z</time>
      </trkpt>
      <trkpt lat="45.37984" lon="5.80098">
        <ele>1348</ele>
        <time>2022-01-12T15:25:26.600Z</time>
      </trkpt>
      <trkpt lat="45.37976" lon="5.80086">
        <ele>1346</ele>
        <time>2022-01-12T15:25:29.611Z</time>
      </trkpt>
      <trkpt lat="45.37965" lon="5.80075">
        <ele>1345</ele>
        <time>2022-01-12T15:25:32.648Z</time>
      </trkpt>
      <trkpt lat="45.37954" lon="5.80057">
        <ele>1343</ele>
        <time>2022-01-12T15:25:36.586Z</time>
      </trkpt>
      <trkpt lat="45.37939" lon="5.80039">
        <ele>1340</ele>
        <time>2022-01-12T15:25:40.611Z</time>
      </trkpt>
      <trkpt lat="45.37925" lon="5.80024">
        <ele>1338</ele>
        <time>2022-01-12T15:25:44.634Z</time>
      </trkpt>
      <trkpt lat="45.37919" lon="5.8002">
        <ele>1335</ele>
        <time>2022-01-12T15:25:50.607Z</time>
      </trkpt>
      <trkpt lat="45.37919" lon="5.8002">
        <ele>1335</ele>
        <time>2022-01-12T15:26:02.609Z</time>
      </trkpt>
      <trkpt lat="45.37914" lon="5.80015">
        <ele>1329</ele>
        <time>2022-01-12T15:26:03.613Z</time>
      </trkpt>
      <trkpt lat="45.37905" lon="5.80009">
        <ele>1327</ele>
        <time>2022-01-12T15:26:07.628Z</time>
      </trkpt>
      <trkpt lat="45.37895" lon="5.80004">
        <ele>1325</ele>
        <time>2022-01-12T15:26:10.609Z</time>
      </trkpt>
      <trkpt lat="45.37884" lon="5.79998">
        <ele>1324</ele>
        <time>2022-01-12T15:26:13.578Z</time>
      </trkpt>
      <trkpt lat="45.37874" lon="5.79991">
        <ele>1323</ele>
        <time>2022-01-12T15:26:16.614Z</time>
      </trkpt>
      <trkpt lat="45.37865" lon="5.7998">
        <ele>1321</ele>
        <time>2022-01-12T15:26:19.633Z</time>
      </trkpt>
      <trkpt lat="45.37859" lon="5.79972">
        <ele>1317</ele>
        <time>2022-01-12T15:26:27.589Z</time>
      </trkpt>
      <trkpt lat="45.37859" lon="5.79972">
        <ele>1317</ele>
        <time>2022-01-12T15:26:47.612Z</time>
      </trkpt>
      <trkpt lat="45.37853" lon="5.7997">
        <ele>1308</ele>
        <time>2022-01-12T15:26:48.634Z</time>
      </trkpt>
      <trkpt lat="45.37841" lon="5.79965">
        <ele>1307</ele>
        <time>2022-01-12T15:26:51.612Z</time>
      </trkpt>
      <trkpt lat="45.3783" lon="5.79959">
        <ele>1305</ele>
        <time>2022-01-12T15:26:54.617Z</time>
      </trkpt>
      <trkpt lat="45.37827" lon="5.79957">
        <ele>1303</ele>
        <time>2022-01-12T15:27:00.622Z</time>
      </trkpt>
      <trkpt lat="45.37827" lon="5.79957">
        <ele>1303</ele>
        <time>2022-01-12T15:27:10.618Z</time>
      </trkpt>
      <trkpt lat="45.37823" lon="5.79956">
        <ele>1300</ele>
        <time>2022-01-12T15:27:11.587Z</time>
      </trkpt>
      <trkpt lat="45.37812" lon="5.79952">
        <ele>1299</ele>
        <time>2022-01-12T15:27:14.625Z</time>
      </trkpt>
      <trkpt lat="45.37801" lon="5.79947">
        <ele>1299</ele>
        <time>2022-01-12T15:27:16.603Z</time>
      </trkpt>
      <trkpt lat="45.37792" lon="5.79942">
        <ele>1298</ele>
        <time>2022-01-12T15:27:18.647Z</time>
      </trkpt>
      <trkpt lat="45.37781" lon="5.79937">
        <ele>1298</ele>
        <time>2022-01-12T15:27:20.636Z</time>
      </trkpt>
      <trkpt lat="45.37771" lon="5.79931">
        <ele>1297</ele>
        <time>2022-01-12T15:27:22.608Z</time>
      </trkpt>
      <trkpt lat="45.37768" lon="5.79929">
        <ele>1296</ele>
        <time>2022-01-12T15:27:27.613Z</time>
      </trkpt>
      <trkpt lat="45.37768" lon="5.79929">
        <ele>1296</ele>
        <time>2022-01-12T15:28:13.596Z</time>
      </trkpt>
      <trkpt lat="45.37771" lon="5.79926">
        <ele>1283</ele>
        <time>2022-01-12T15:28:14.608Z</time>
      </trkpt>
      <trkpt lat="45.37773" lon="5.79912">
        <ele>1282</ele>
        <time>2022-01-12T15:28:22.610Z</time>
      </trkpt>
      <trkpt lat="45.37776" lon="5.799">
        <ele>1280</ele>
        <time>2022-01-12T15:28:33.576Z</time>
      </trkpt>
      <trkpt lat="45.37782" lon="5.7989">
        <ele>1277</ele>
        <time>2022-01-12T15:28:47.592Z</time>
      </trkpt>
      <trkpt lat="45.37777" lon="5.79878">
        <ele>1275</ele>
        <time>2022-01-12T15:28:54.614Z</time>
      </trkpt>
      <trkpt lat="45.37771" lon="5.79863">
        <ele>1273</ele>
        <time>2022-01-12T15:29:00.597Z</time>
      </trkpt>
      <trkpt lat="45.37761" lon="5.79856">
        <ele>1272</ele>
        <time>2022-01-12T15:29:02.625Z</time>
      </trkpt>
      <trkpt lat="45.37756" lon="5.79846">
        <ele>1271</ele>
        <time>2022-01-12T15:29:06.594Z</time>
      </trkpt>
      <trkpt lat="45.37754" lon="5.79833">
        <ele>1268</ele>
        <time>2022-01-12T15:29:13.631Z</time>
      </trkpt>
      <trkpt lat="45.3775" lon="5.79817">
        <ele>1266</ele>
        <time>2022-01-12T15:29:17.612Z</time>
      </trkpt>
      <trkpt lat="45.37743" lon="5.79804">
        <ele>1264</ele>
        <time>2022-01-12T15:29:20.573Z</time>
      </trkpt>
      <trkpt lat="45.37733" lon="5.79793">
        <ele>1263</ele>
        <time>2022-01-12T15:29:22.635Z</time>
      </trkpt>
      <trkpt lat="45.37725" lon="5.79783">
        <ele>1262</ele>
        <time>2022-01-12T15:29:24.630Z</time>
      </trkpt>
      <trkpt lat="45.37714" lon="5.7977">
        <ele>1260</ele>
        <time>2022-01-12T15:29:27.615Z</time>
      </trkpt>
      <trkpt lat="45.377" lon="5.79754">
        <ele>1258</ele>
        <time>2022-01-12T15:29:30.584Z</time>
      </trkpt>
      <trkpt lat="45.37689" lon="5.79743">
        <ele>1257</ele>
        <time>2022-01-12T15:29:32.606Z</time>
      </trkpt>
      <trkpt lat="45.37674" lon="5.79718">
        <ele>1254</ele>
        <time>2022-01-12T15:29:36.617Z</time>
      </trkpt>
      <trkpt lat="45.37655" lon="5.79698">
        <ele>1251</ele>
        <time>2022-01-12T15:29:41.609Z</time>
      </trkpt>
      <trkpt lat="45.37631" lon="5.79682">
        <ele>1246</ele>
        <time>2022-01-12T15:29:47.590Z</time>
      </trkpt>
      <trkpt lat="45.37608" lon="5.79668">
        <ele>1243</ele>
        <time>2022-01-12T15:29:52.625Z</time>
      </trkpt>
      <trkpt lat="45.37586" lon="5.79658">
        <ele>1241</ele>
        <time>2022-01-12T15:29:56.586Z</time>
      </trkpt>
      <trkpt lat="45.37564" lon="5.79645">
        <ele>1238</ele>
        <time>2022-01-12T15:30:00.607Z</time>
      </trkpt>
      <trkpt lat="45.37541" lon="5.79632">
        <ele>1237</ele>
        <time>2022-01-12T15:30:04.627Z</time>
      </trkpt>
      <trkpt lat="45.37521" lon="5.79618">
        <ele>1233</ele>
        <time>2022-01-12T15:30:12.624Z</time>
      </trkpt>
      <trkpt lat="45.37515" lon="5.79595">
        <ele>1229</ele>
        <time>2022-01-12T15:30:20.651Z</time>
      </trkpt>
      <trkpt lat="45.37505" lon="5.79586">
        <ele>1227</ele>
        <time>2022-01-12T15:30:26.610Z</time>
      </trkpt>
      <trkpt lat="45.37504" lon="5.79585">
        <ele>1227</ele>
        <time>2022-01-12T15:30:28.626Z</time>
      </trkpt>
      <trkpt lat="45.37504" lon="5.79585">
        <ele>1227</ele>
        <time>2022-01-12T15:30:29.580Z</time>
      </trkpt>
      <trkpt lat="45.375" lon="5.79582">
        <ele>1226</ele>
        <time>2022-01-12T15:30:30.624Z</time>
      </trkpt>
      <trkpt lat="45.37493" lon="5.79573">
        <ele>1224</ele>
        <time>2022-01-12T15:30:37.592Z</time>
      </trkpt>
      <trkpt lat="45.37493" lon="5.79575">
        <ele>1222</ele>
        <time>2022-01-12T15:30:42.584Z</time>
      </trkpt>
      <trkpt lat="45.37493" lon="5.79575">
        <ele>1222</ele>
        <time>2022-01-12T15:31:06.617Z</time>
      </trkpt>
      <trkpt lat="45.37497" lon="5.79575">
        <ele>1215</ele>
        <time>2022-01-12T15:31:07.617Z</time>
      </trkpt>
      <trkpt lat="45.37506" lon="5.79569">
        <ele>1214</ele>
        <time>2022-01-12T15:31:12.600Z</time>
      </trkpt>
      <trkpt lat="45.37514" lon="5.79561">
        <ele>1213</ele>
        <time>2022-01-12T15:31:17.602Z</time>
      </trkpt>
      <trkpt lat="45.37506" lon="5.79557">
        <ele>1212</ele>
        <time>2022-01-12T15:31:21.569Z</time>
      </trkpt>
      <trkpt lat="45.37495" lon="5.79552">
        <ele>1212</ele>
        <time>2022-01-12T15:31:24.592Z</time>
      </trkpt>
      <trkpt lat="45.37482" lon="5.79546">
        <ele>1211</ele>
        <time>2022-01-12T15:31:27.618Z</time>
      </trkpt>
      <trkpt lat="45.37471" lon="5.79539">
        <ele>1211</ele>
        <time>2022-01-12T15:31:30.604Z</time>
      </trkpt>
      <trkpt lat="45.3746" lon="5.79533">
        <ele>1210</ele>
        <time>2022-01-12T15:31:33.591Z</time>
      </trkpt>
      <trkpt lat="45.37447" lon="5.79522">
        <ele>1210</ele>
        <time>2022-01-12T15:31:36.591Z</time>
      </trkpt>
      <trkpt lat="45.37433" lon="5.79507">
        <ele>1209</ele>
        <time>2022-01-12T15:31:39.608Z</time>
      </trkpt>
      <trkpt lat="45.37414" lon="5.79498">
        <ele>1208</ele>
        <time>2022-01-12T15:31:43.580Z</time>
      </trkpt>
      <trkpt lat="45.37397" lon="5.79488">
        <ele>1207</ele>
        <time>2022-01-12T15:31:47.623Z</time>
      </trkpt>
      <trkpt lat="45.37373" lon="5.79479">
        <ele>1205</ele>
        <time>2022-01-12T15:31:52.615Z</time>
      </trkpt>
      <trkpt lat="45.37348" lon="5.79472">
        <ele>1203</ele>
        <time>2022-01-12T15:31:57.603Z</time>
      </trkpt>
      <trkpt lat="45.37327" lon="5.79459">
        <ele>1201</ele>
        <time>2022-01-12T15:32:01.603Z</time>
      </trkpt>
      <trkpt lat="45.37308" lon="5.79436">
        <ele>1199</ele>
        <time>2022-01-12T15:32:06.620Z</time>
      </trkpt>
      <trkpt lat="45.37291" lon="5.79411">
        <ele>1196</ele>
        <time>2022-01-12T15:32:12.576Z</time>
      </trkpt>
      <trkpt lat="45.37278" lon="5.79388">
        <ele>1193</ele>
        <time>2022-01-12T15:32:18.637Z</time>
      </trkpt>
      <trkpt lat="45.37261" lon="5.79367">
        <ele>1190</ele>
        <time>2022-01-12T15:32:22.559Z</time>
      </trkpt>
      <trkpt lat="45.37243" lon="5.79345">
        <ele>1188</ele>
        <time>2022-01-12T15:32:25.601Z</time>
      </trkpt>
      <trkpt lat="45.37228" lon="5.79327">
        <ele>1186</ele>
        <time>2022-01-12T15:32:29.618Z</time>
      </trkpt>
      <trkpt lat="45.37212" lon="5.79311">
        <ele>1182</ele>
        <time>2022-01-12T15:32:34.568Z</time>
      </trkpt>
      <trkpt lat="45.37193" lon="5.79296">
        <ele>1180</ele>
        <time>2022-01-12T15:32:38.613Z</time>
      </trkpt>
      <trkpt lat="45.37169" lon="5.79283">
        <ele>1176</ele>
        <time>2022-01-12T15:32:43.586Z</time>
      </trkpt>
      <trkpt lat="45.37149" lon="5.79272">
        <ele>1173</ele>
        <time>2022-01-12T15:32:47.617Z</time>
      </trkpt>
      <trkpt lat="45.37128" lon="5.79269">
        <ele>1169</ele>
        <time>2022-01-12T15:32:52.618Z</time>
      </trkpt>
      <trkpt lat="45.37105" lon="5.79273">
        <ele>1166</ele>
        <time>2022-01-12T15:32:56.614Z</time>
      </trkpt>
      <trkpt lat="45.37083" lon="5.79274">
        <ele>1163</ele>
        <time>2022-01-12T15:33:00.565Z</time>
      </trkpt>
      <trkpt lat="45.37066" lon="5.79286">
        <ele>1156</ele>
        <time>2022-01-12T15:33:08.591Z</time>
      </trkpt>
      <trkpt lat="45.37066" lon="5.79286">
        <ele>1156</ele>
        <time>2022-01-12T15:33:17.593Z</time>
      </trkpt>
      <trkpt lat="45.37061" lon="5.79292">
        <ele>1150</ele>
        <time>2022-01-12T15:33:18.599Z</time>
      </trkpt>
      <trkpt lat="45.37053" lon="5.79303">
        <ele>1148</ele>
        <time>2022-01-12T15:33:22.594Z</time>
      </trkpt>
      <trkpt lat="45.37044" lon="5.7931">
        <ele>1146</ele>
        <time>2022-01-12T15:33:25.617Z</time>
      </trkpt>
      <trkpt lat="45.37033" lon="5.79314">
        <ele>1145</ele>
        <time>2022-01-12T15:33:27.595Z</time>
      </trkpt>
      <trkpt lat="45.37022" lon="5.79317">
        <ele>1144</ele>
        <time>2022-01-12T15:33:29.554Z</time>
      </trkpt>
      <trkpt lat="45.37011" lon="5.79321">
        <ele>1143</ele>
        <time>2022-01-12T15:33:31.627Z</time>
      </trkpt>
      <trkpt lat="45.37003" lon="5.79327">
        <ele>1142</ele>
        <time>2022-01-12T15:33:33.598Z</time>
      </trkpt>
      <trkpt lat="45.36988" lon="5.79337">
        <ele>1141</ele>
        <time>2022-01-12T15:33:36.629Z</time>
      </trkpt>
      <trkpt lat="45.36971" lon="5.79351">
        <ele>1140</ele>
        <time>2022-01-12T15:33:39.601Z</time>
      </trkpt>
      <trkpt lat="45.3695" lon="5.79357">
        <ele>1138</ele>
        <time>2022-01-12T15:33:43.607Z</time>
      </trkpt>
      <trkpt lat="45.36929" lon="5.79362">
        <ele>1137</ele>
        <time>2022-01-12T15:33:47.611Z</time>
      </trkpt>
      <trkpt lat="45.36905" lon="5.79364">
        <ele>1135</ele>
        <time>2022-01-12T15:33:51.595Z</time>
      </trkpt>
      <trkpt lat="45.36877" lon="5.79366">
        <ele>1133</ele>
        <time>2022-01-12T15:33:56.592Z</time>
      </trkpt>
      <trkpt lat="45.3685" lon="5.79366">
        <ele>1131</ele>
        <time>2022-01-12T15:34:01.587Z</time>
      </trkpt>
      <trkpt lat="45.36826" lon="5.79364">
        <ele>1128</ele>
        <time>2022-01-12T15:34:06.586Z</time>
      </trkpt>
      <trkpt lat="45.36805" lon="5.79345">
        <ele>1126</ele>
        <time>2022-01-12T15:34:11.621Z</time>
      </trkpt>
      <trkpt lat="45.36782" lon="5.79329">
        <ele>1122</ele>
        <time>2022-01-12T15:34:16.606Z</time>
      </trkpt>
      <trkpt lat="45.36759" lon="5.79315">
        <ele>1119</ele>
        <time>2022-01-12T15:34:21.623Z</time>
      </trkpt>
      <trkpt lat="45.36738" lon="5.79308">
        <ele>1115</ele>
        <time>2022-01-12T15:34:26.604Z</time>
      </trkpt>
      <trkpt lat="45.36737" lon="5.79306">
        <ele>1112</ele>
        <time>2022-01-12T15:34:30.599Z</time>
      </trkpt>
      <trkpt lat="45.36737" lon="5.79306">
        <ele>1112</ele>
        <time>2022-01-12T15:34:38.589Z</time>
      </trkpt>
      <trkpt lat="45.3673" lon="5.79311">
        <ele>1105</ele>
        <time>2022-01-12T15:34:39.614Z</time>
      </trkpt>
      <trkpt lat="45.36719" lon="5.7931">
        <ele>1103</ele>
        <time>2022-01-12T15:34:42.593Z</time>
      </trkpt>
      <trkpt lat="45.3671" lon="5.79309">
        <ele>1101</ele>
        <time>2022-01-12T15:34:44.608Z</time>
      </trkpt>
      <trkpt lat="45.367" lon="5.79309">
        <ele>1099</ele>
        <time>2022-01-12T15:34:46.518Z</time>
      </trkpt>
      <trkpt lat="45.36689" lon="5.79311">
        <ele>1098</ele>
        <time>2022-01-12T15:34:48.582Z</time>
      </trkpt>
      <trkpt lat="45.36677" lon="5.79315">
        <ele>1095</ele>
        <time>2022-01-12T15:34:51.580Z</time>
      </trkpt>
      <trkpt lat="45.36667" lon="5.79317">
        <ele>1094</ele>
        <time>2022-01-12T15:34:53.566Z</time>
      </trkpt>
      <trkpt lat="45.36653" lon="5.79321">
        <ele>1092</ele>
        <time>2022-01-12T15:34:55.572Z</time>
      </trkpt>
      <trkpt lat="45.36637" lon="5.79324">
        <ele>1090</ele>
        <time>2022-01-12T15:34:57.569Z</time>
      </trkpt>
      <trkpt lat="45.36617" lon="5.79326">
        <ele>1087</ele>
        <time>2022-01-12T15:35:00.557Z</time>
      </trkpt>
      <trkpt lat="45.36593" lon="5.79337">
        <ele>1082</ele>
        <time>2022-01-12T15:35:06.560Z</time>
      </trkpt>
      <trkpt lat="45.36571" lon="5.79342">
        <ele>1076</ele>
        <time>2022-01-12T15:35:13.535Z</time>
      </trkpt>
      <trkpt lat="45.36564" lon="5.79324">
        <ele>1068</ele>
        <time>2022-01-12T15:35:22.587Z</time>
      </trkpt>
      <trkpt lat="45.36554" lon="5.79317">
        <ele>1064</ele>
        <time>2022-01-12T15:35:26.561Z</time>
      </trkpt>
      <trkpt lat="45.36542" lon="5.79311">
        <ele>1061</ele>
        <time>2022-01-12T15:35:30.559Z</time>
      </trkpt>
      <trkpt lat="45.36533" lon="5.79304">
        <ele>1059</ele>
        <time>2022-01-12T15:35:33.560Z</time>
      </trkpt>
      <trkpt lat="45.36521" lon="5.79302">
        <ele>1057</ele>
        <time>2022-01-12T15:35:36.575Z</time>
      </trkpt>
      <trkpt lat="45.3651" lon="5.79302">
        <ele>1055</ele>
        <time>2022-01-12T15:35:39.592Z</time>
      </trkpt>
      <trkpt lat="45.36499" lon="5.79296">
        <ele>1052</ele>
        <time>2022-01-12T15:35:43.550Z</time>
      </trkpt>
      <trkpt lat="45.36491" lon="5.79286">
        <ele>1047</ele>
        <time>2022-01-12T15:35:54.579Z</time>
      </trkpt>
      <trkpt lat="45.36483" lon="5.79271">
        <ele>1046</ele>
        <time>2022-01-12T15:35:57.568Z</time>
      </trkpt>
      <trkpt lat="45.36474" lon="5.79262">
        <ele>1045</ele>
        <time>2022-01-12T15:36:00.561Z</time>
      </trkpt>
      <trkpt lat="45.36465" lon="5.79253">
        <ele>1044</ele>
        <time>2022-01-12T15:36:03.544Z</time>
      </trkpt>
      <trkpt lat="45.36457" lon="5.79243">
        <ele>1042</ele>
        <time>2022-01-12T15:36:07.552Z</time>
      </trkpt>
      <trkpt lat="45.3645" lon="5.79229">
        <ele>1042</ele>
        <time>2022-01-12T15:36:10.610Z</time>
      </trkpt>
      <trkpt lat="45.36438" lon="5.79221">
        <ele>1040</ele>
        <time>2022-01-12T15:36:15.557Z</time>
      </trkpt>
      <trkpt lat="45.36429" lon="5.79213">
        <ele>1038</ele>
        <time>2022-01-12T15:36:22.572Z</time>
      </trkpt>
      <trkpt lat="45.36429" lon="5.79212">
        <ele>1038</ele>
        <time>2022-01-12T15:36:23.571Z</time>
      </trkpt>
      <trkpt lat="45.36429" lon="5.79212">
        <ele>1038</ele>
        <time>2022-01-12T15:36:31.558Z</time>
      </trkpt>
      <trkpt lat="45.36426" lon="5.79216">
        <ele>1035</ele>
        <time>2022-01-12T15:36:32.557Z</time>
      </trkpt>
      <trkpt lat="45.36417" lon="5.79208">
        <ele>1031</ele>
        <time>2022-01-12T15:36:45.560Z</time>
      </trkpt>
      <trkpt lat="45.36408" lon="5.79202">
        <ele>1031</ele>
        <time>2022-01-12T15:36:48.594Z</time>
      </trkpt>
      <trkpt lat="45.36398" lon="5.79197">
        <ele>1030</ele>
        <time>2022-01-12T15:36:50.512Z</time>
      </trkpt>
      <trkpt lat="45.36388" lon="5.79192">
        <ele>1030</ele>
        <time>2022-01-12T15:36:52.584Z</time>
      </trkpt>
      <trkpt lat="45.36378" lon="5.7919">
        <ele>1029</ele>
        <time>2022-01-12T15:36:54.597Z</time>
      </trkpt>
      <trkpt lat="45.36368" lon="5.79187">
        <ele>1028</ele>
        <time>2022-01-12T15:36:57.603Z</time>
      </trkpt>
      <trkpt lat="45.3636" lon="5.79177">
        <ele>1025</ele>
        <time>2022-01-12T15:37:06.574Z</time>
      </trkpt>
      <trkpt lat="45.36352" lon="5.7917">
        <ele>1021</ele>
        <time>2022-01-12T15:37:20.568Z</time>
      </trkpt>
      <trkpt lat="45.36344" lon="5.79159">
        <ele>1020</ele>
        <time>2022-01-12T15:37:25.566Z</time>
      </trkpt>
      <trkpt lat="45.36335" lon="5.79154">
        <ele>1019</ele>
        <time>2022-01-12T15:37:28.566Z</time>
      </trkpt>
      <trkpt lat="45.36327" lon="5.79149">
        <ele>1019</ele>
        <time>2022-01-12T15:37:30.557Z</time>
      </trkpt>
      <trkpt lat="45.36317" lon="5.79143">
        <ele>1018</ele>
        <time>2022-01-12T15:37:32.560Z</time>
      </trkpt>
      <trkpt lat="45.36312" lon="5.79142">
        <ele>1015</ele>
        <time>2022-01-12T15:37:42.552Z</time>
      </trkpt>
      <trkpt lat="45.36312" lon="5.79142">
        <ele>1015</ele>
        <time>2022-01-12T15:38:20.576Z</time>
      </trkpt>
      <trkpt lat="45.36307" lon="5.79143">
        <ele>1005</ele>
        <time>2022-01-12T15:38:21.588Z</time>
      </trkpt>
      <trkpt lat="45.36297" lon="5.79144">
        <ele>1004</ele>
        <time>2022-01-12T15:38:29.600Z</time>
      </trkpt>
      <trkpt lat="45.36288" lon="5.79148">
        <ele>1004</ele>
        <time>2022-01-12T15:38:34.629Z</time>
      </trkpt>
      <trkpt lat="45.36279" lon="5.79146">
        <ele>1002</ele>
        <time>2022-01-12T15:38:40.632Z</time>
      </trkpt>
      <trkpt lat="45.36271" lon="5.79141">
        <ele>1000</ele>
        <time>2022-01-12T15:38:48.626Z</time>
      </trkpt>
      <trkpt lat="45.36263" lon="5.79134">
        <ele>997</ele>
        <time>2022-01-12T15:38:57.549Z</time>
      </trkpt>
      <trkpt lat="45.3626" lon="5.79129">
        <ele>992</ele>
        <time>2022-01-12T15:39:08.601Z</time>
      </trkpt>
      <trkpt lat="45.3626" lon="5.79129">
        <ele>992</ele>
        <time>2022-01-12T15:39:42.593Z</time>
      </trkpt>
      <trkpt lat="45.36254" lon="5.79118">
        <ele>985</ele>
        <time>2022-01-12T15:39:43.593Z</time>
      </trkpt>
      <trkpt lat="45.36257" lon="5.79118">
        <ele>985</ele>
        <time>2022-01-12T15:39:55.581Z</time>
      </trkpt>
      <trkpt lat="45.36257" lon="5.79118">
        <ele>985</ele>
        <time>2022-01-12T15:40:16.574Z</time>
      </trkpt>
      <trkpt lat="45.36252" lon="5.79115">
        <ele>986</ele>
        <time>2022-01-12T15:40:17.588Z</time>
      </trkpt>
      <trkpt lat="45.36242" lon="5.79106">
        <ele>987</ele>
        <time>2022-01-12T15:40:20.577Z</time>
      </trkpt>
      <trkpt lat="45.36233" lon="5.79094">
        <ele>987</ele>
        <time>2022-01-12T15:40:23.579Z</time>
      </trkpt>
      <trkpt lat="45.36224" lon="5.79084">
        <ele>987</ele>
        <time>2022-01-12T15:40:25.578Z</time>
      </trkpt>
      <trkpt lat="45.36214" lon="5.79076">
        <ele>987</ele>
        <time>2022-01-12T15:40:27.578Z</time>
      </trkpt>
      <trkpt lat="45.36205" lon="5.79072">
        <ele>987</ele>
        <time>2022-01-12T15:40:29.610Z</time>
      </trkpt>
      <trkpt lat="45.36196" lon="5.7907">
        <ele>987</ele>
        <time>2022-01-12T15:40:31.635Z</time>
      </trkpt>
      <trkpt lat="45.36182" lon="5.79067">
        <ele>987</ele>
        <time>2022-01-12T15:40:34.601Z</time>
      </trkpt>
      <trkpt lat="45.36167" lon="5.79064">
        <ele>987</ele>
        <time>2022-01-12T15:40:37.564Z</time>
      </trkpt>
      <trkpt lat="45.36147" lon="5.79059">
        <ele>986</ele>
        <time>2022-01-12T15:40:41.624Z</time>
      </trkpt>
      <trkpt lat="45.36125" lon="5.79052">
        <ele>985</ele>
        <time>2022-01-12T15:40:45.626Z</time>
      </trkpt>
      <trkpt lat="45.36099" lon="5.79043">
        <ele>983</ele>
        <time>2022-01-12T15:40:50.580Z</time>
      </trkpt>
      <trkpt lat="45.36075" lon="5.79035">
        <ele>981</ele>
        <time>2022-01-12T15:40:55.549Z</time>
      </trkpt>
      <trkpt lat="45.36053" lon="5.79015">
        <ele>978</ele>
        <time>2022-01-12T15:41:00.610Z</time>
      </trkpt>
      <trkpt lat="45.36031" lon="5.79001">
        <ele>976</ele>
        <time>2022-01-12T15:41:04.595Z</time>
      </trkpt>
      <trkpt lat="45.3601" lon="5.78991">
        <ele>973</ele>
        <time>2022-01-12T15:41:08.610Z</time>
      </trkpt>
      <trkpt lat="45.35987" lon="5.78978">
        <ele>971</ele>
        <time>2022-01-12T15:41:12.592Z</time>
      </trkpt>
      <trkpt lat="45.35961" lon="5.7896">
        <ele>967</ele>
        <time>2022-01-12T15:41:17.600Z</time>
      </trkpt>
      <trkpt lat="45.35937" lon="5.78949">
        <ele>964</ele>
        <time>2022-01-12T15:41:22.614Z</time>
      </trkpt>
      <trkpt lat="45.35911" lon="5.78938">
        <ele>961</ele>
        <time>2022-01-12T15:41:26.609Z</time>
      </trkpt>
      <trkpt lat="45.35884" lon="5.78927">
        <ele>958</ele>
        <time>2022-01-12T15:41:30.591Z</time>
      </trkpt>
      <trkpt lat="45.35861" lon="5.78914">
        <ele>956</ele>
        <time>2022-01-12T15:41:34.579Z</time>
      </trkpt>
      <trkpt lat="45.35837" lon="5.78898">
        <ele>953</ele>
        <time>2022-01-12T15:41:38.598Z</time>
      </trkpt>
      <trkpt lat="45.35808" lon="5.78883">
        <ele>949</ele>
        <time>2022-01-12T15:41:43.541Z</time>
      </trkpt>
      <trkpt lat="45.35778" lon="5.78869">
        <ele>945</ele>
        <time>2022-01-12T15:41:48.541Z</time>
      </trkpt>
      <trkpt lat="45.35747" lon="5.78858">
        <ele>941</ele>
        <time>2022-01-12T15:41:53.579Z</time>
      </trkpt>
      <trkpt lat="45.35717" lon="5.78847">
        <ele>937</ele>
        <time>2022-01-12T15:41:58.564Z</time>
      </trkpt>
      <trkpt lat="45.35689" lon="5.78827">
        <ele>932</ele>
        <time>2022-01-12T15:42:03.552Z</time>
      </trkpt>
      <trkpt lat="45.35663" lon="5.78811">
        <ele>928</ele>
        <time>2022-01-12T15:42:07.560Z</time>
      </trkpt>
      <trkpt lat="45.35636" lon="5.78795">
        <ele>923</ele>
        <time>2022-01-12T15:42:12.548Z</time>
      </trkpt>
      <trkpt lat="45.35607" lon="5.78786">
        <ele>917</ele>
        <time>2022-01-12T15:42:18.561Z</time>
      </trkpt>
      <trkpt lat="45.3558" lon="5.78781">
        <ele>911</ele>
        <time>2022-01-12T15:42:24.575Z</time>
      </trkpt>
      <trkpt lat="45.35556" lon="5.78774">
        <ele>905</ele>
        <time>2022-01-12T15:42:30.538Z</time>
      </trkpt>
      <trkpt lat="45.35537" lon="5.78769">
        <ele>901</ele>
        <time>2022-01-12T15:42:35.520Z</time>
      </trkpt>
      <trkpt lat="45.35522" lon="5.78761">
        <ele>896</ele>
        <time>2022-01-12T15:42:42.552Z</time>
      </trkpt>
      <trkpt lat="45.35512" lon="5.78759">
        <ele>891</ele>
        <time>2022-01-12T15:42:50.524Z</time>
      </trkpt>
      <trkpt lat="45.35502" lon="5.7876">
        <ele>888</ele>
        <time>2022-01-12T15:42:57.558Z</time>
      </trkpt>
      <trkpt lat="45.35499" lon="5.78755">
        <ele>885</ele>
        <time>2022-01-12T15:43:06.544Z</time>
      </trkpt>
      <trkpt lat="45.35499" lon="5.78755">
        <ele>885</ele>
        <time>2022-01-12T15:44:10.520Z</time>
      </trkpt>
      <trkpt lat="45.355" lon="5.78762">
        <ele>879</ele>
        <time>2022-01-12T15:44:11.554Z</time>
      </trkpt>
      <trkpt lat="45.35501" lon="5.78763">
        <ele>879</ele>
        <time>2022-01-12T15:44:17.574Z</time>
      </trkpt>
      <trkpt lat="45.35501" lon="5.78763">
        <ele>879</ele>
        <time>2022-01-12T15:45:09.535Z</time>
      </trkpt>
      <trkpt lat="45.35501" lon="5.78758">
        <ele>878</ele>
        <time>2022-01-12T15:45:10.529Z</time>
      </trkpt>
      <trkpt lat="45.35499" lon="5.78759">
        <ele>877</ele>
        <time>2022-01-12T15:45:18.553Z</time>
      </trkpt>
      <trkpt lat="45.35499" lon="5.78759">
        <ele>805</ele>
        <time>2022-01-12T15:45:41.910Z</time>
      </trkpt>
    </trkseg>
  </trk>
</gpx>